<?xml version="1.0" encoding="UTF-8" standalone="no" ?>
<gpx xmlns="http://www.topografix.com/GPX/1/1" xmlns:xsi="http://www.w3.org/2001/XMLSchema-instance" xsi:schemaLocation="http://www.topografix.com/GPX/1/1 http://www.topografix.com/GPX/1/1/gpx.xsd" version="1.1" creator="VisuGPX - https://www.visugpx.com">
  <metadata>
    <name>2018-09-17-46-st Chamarand</name>
    <desc><![CDATA[randonnée de 12 km pour 300m de dénivelé positif  Une belle montée dès le départ sera la difficulté de cette randonnée. de beaux chemins en sous-bois et de beaux paysages
]]></desc>
  </metadata>
  <trk>
    <name><![CDATA[2018-09-17 17:32:41]]></name>
    <trkseg>
      <trkpt lat="44.67811" lon="1.46168">
        <ele>236.62</ele>
        <time>2018-09-17T12:00:36Z</time>
      </trkpt>
      <trkpt lat="44.67811" lon="1.46158">
        <ele>236.62</ele>
        <time>2018-09-17T12:04:27Z</time>
      </trkpt>
      <trkpt lat="44.67816" lon="1.46147">
        <ele>238.06</ele>
        <time>2018-09-17T12:05:09Z</time>
      </trkpt>
      <trkpt lat="44.67819" lon="1.46133">
        <ele>238.54</ele>
        <time>2018-09-17T12:05:18Z</time>
      </trkpt>
      <trkpt lat="44.6782" lon="1.4612">
        <ele>238.54</ele>
        <time>2018-09-17T12:05:27Z</time>
      </trkpt>
      <trkpt lat="44.6782" lon="1.46105">
        <ele>239.02</ele>
        <time>2018-09-17T12:05:35Z</time>
      </trkpt>
      <trkpt lat="44.67817" lon="1.46092">
        <ele>239.02</ele>
        <time>2018-09-17T12:05:52Z</time>
      </trkpt>
      <trkpt lat="44.67806" lon="1.46087">
        <ele>239.02</ele>
        <time>2018-09-17T12:06:00Z</time>
      </trkpt>
      <trkpt lat="44.67795" lon="1.46084">
        <ele>239.51</ele>
        <time>2018-09-17T12:06:08Z</time>
      </trkpt>
      <trkpt lat="44.67784" lon="1.46082">
        <ele>239.51</ele>
        <time>2018-09-17T12:06:16Z</time>
      </trkpt>
      <trkpt lat="44.67774" lon="1.46079">
        <ele>239.51</ele>
        <time>2018-09-17T12:06:24Z</time>
      </trkpt>
      <trkpt lat="44.67763" lon="1.46077">
        <ele>239.99</ele>
        <time>2018-09-17T12:06:32Z</time>
      </trkpt>
      <trkpt lat="44.67752" lon="1.46076">
        <ele>239.99</ele>
        <time>2018-09-17T12:06:42Z</time>
      </trkpt>
      <trkpt lat="44.67742" lon="1.46076">
        <ele>240.47</ele>
        <time>2018-09-17T12:06:58Z</time>
      </trkpt>
      <trkpt lat="44.67734" lon="1.46072">
        <ele>241.43</ele>
        <time>2018-09-17T12:07:30Z</time>
      </trkpt>
      <trkpt lat="44.67723" lon="1.46073">
        <ele>241.43</ele>
        <time>2018-09-17T12:07:38Z</time>
      </trkpt>
      <trkpt lat="44.67714" lon="1.46074">
        <ele>241.43</ele>
        <time>2018-09-17T12:07:45Z</time>
      </trkpt>
      <trkpt lat="44.67704" lon="1.46075">
        <ele>241.43</ele>
        <time>2018-09-17T12:07:52Z</time>
      </trkpt>
      <trkpt lat="44.67695" lon="1.46076">
        <ele>241.43</ele>
        <time>2018-09-17T12:08:00Z</time>
      </trkpt>
      <trkpt lat="44.67684" lon="1.46077">
        <ele>241.91</ele>
        <time>2018-09-17T12:08:07Z</time>
      </trkpt>
      <trkpt lat="44.67674" lon="1.46079">
        <ele>241.91</ele>
        <time>2018-09-17T12:08:14Z</time>
      </trkpt>
      <trkpt lat="44.67664" lon="1.46079">
        <ele>242.39</ele>
        <time>2018-09-17T12:08:21Z</time>
      </trkpt>
      <trkpt lat="44.67653" lon="1.46081">
        <ele>242.39</ele>
        <time>2018-09-17T12:08:28Z</time>
      </trkpt>
      <trkpt lat="44.67643" lon="1.4608">
        <ele>242.87</ele>
        <time>2018-09-17T12:08:36Z</time>
      </trkpt>
      <trkpt lat="44.67632" lon="1.46078">
        <ele>243.35</ele>
        <time>2018-09-17T12:08:44Z</time>
      </trkpt>
      <trkpt lat="44.67622" lon="1.46072">
        <ele>243.35</ele>
        <time>2018-09-17T12:08:52Z</time>
      </trkpt>
      <trkpt lat="44.67613" lon="1.4607">
        <ele>243.35</ele>
        <time>2018-09-17T12:08:59Z</time>
      </trkpt>
      <trkpt lat="44.67603" lon="1.46065">
        <ele>243.35</ele>
        <time>2018-09-17T12:09:06Z</time>
      </trkpt>
      <trkpt lat="44.67593" lon="1.46055">
        <ele>243.35</ele>
        <time>2018-09-17T12:09:14Z</time>
      </trkpt>
      <trkpt lat="44.67584" lon="1.46047">
        <ele>241.91</ele>
        <time>2018-09-17T12:09:22Z</time>
      </trkpt>
      <trkpt lat="44.67578" lon="1.46052">
        <ele>241.91</ele>
        <time>2018-09-17T12:09:31Z</time>
      </trkpt>
      <trkpt lat="44.6758" lon="1.46064">
        <ele>240.47</ele>
        <time>2018-09-17T12:09:40Z</time>
      </trkpt>
      <trkpt lat="44.67584" lon="1.46077">
        <ele>239.99</ele>
        <time>2018-09-17T12:09:48Z</time>
      </trkpt>
      <trkpt lat="44.67587" lon="1.46089">
        <ele>239.51</ele>
        <time>2018-09-17T12:09:56Z</time>
      </trkpt>
      <trkpt lat="44.6759" lon="1.46103">
        <ele>237.58</ele>
        <time>2018-09-17T12:10:05Z</time>
      </trkpt>
      <trkpt lat="44.67589" lon="1.46118">
        <ele>236.14</ele>
        <time>2018-09-17T12:10:14Z</time>
      </trkpt>
      <trkpt lat="44.67586" lon="1.46132">
        <ele>234.7</ele>
        <time>2018-09-17T12:10:22Z</time>
      </trkpt>
      <trkpt lat="44.67576" lon="1.46139">
        <ele>234.7</ele>
        <time>2018-09-17T12:10:30Z</time>
      </trkpt>
      <trkpt lat="44.67566" lon="1.46143">
        <ele>234.22</ele>
        <time>2018-09-17T12:10:39Z</time>
      </trkpt>
      <trkpt lat="44.67553" lon="1.46146">
        <ele>234.22</ele>
        <time>2018-09-17T12:10:48Z</time>
      </trkpt>
      <trkpt lat="44.67542" lon="1.46149">
        <ele>233.74</ele>
        <time>2018-09-17T12:10:55Z</time>
      </trkpt>
      <trkpt lat="44.67531" lon="1.46153">
        <ele>233.74</ele>
        <time>2018-09-17T12:11:03Z</time>
      </trkpt>
      <trkpt lat="44.67521" lon="1.46156">
        <ele>233.74</ele>
        <time>2018-09-17T12:11:10Z</time>
      </trkpt>
      <trkpt lat="44.6751" lon="1.46159">
        <ele>233.74</ele>
        <time>2018-09-17T12:11:18Z</time>
      </trkpt>
      <trkpt lat="44.67499" lon="1.46163">
        <ele>233.74</ele>
        <time>2018-09-17T12:11:26Z</time>
      </trkpt>
      <trkpt lat="44.6749" lon="1.46166">
        <ele>233.74</ele>
        <time>2018-09-17T12:11:34Z</time>
      </trkpt>
      <trkpt lat="44.6748" lon="1.4617">
        <ele>233.74</ele>
        <time>2018-09-17T12:11:42Z</time>
      </trkpt>
      <trkpt lat="44.6747" lon="1.46172">
        <ele>233.74</ele>
        <time>2018-09-17T12:11:51Z</time>
      </trkpt>
      <trkpt lat="44.67461" lon="1.46173">
        <ele>232.78</ele>
        <time>2018-09-17T12:11:59Z</time>
      </trkpt>
      <trkpt lat="44.67451" lon="1.46175">
        <ele>232.78</ele>
        <time>2018-09-17T12:12:07Z</time>
      </trkpt>
      <trkpt lat="44.6744" lon="1.46177">
        <ele>232.78</ele>
        <time>2018-09-17T12:12:15Z</time>
      </trkpt>
      <trkpt lat="44.6743" lon="1.46179">
        <ele>232.78</ele>
        <time>2018-09-17T12:12:23Z</time>
      </trkpt>
      <trkpt lat="44.67419" lon="1.46179">
        <ele>232.78</ele>
        <time>2018-09-17T12:12:32Z</time>
      </trkpt>
      <trkpt lat="44.67409" lon="1.46181">
        <ele>232.3</ele>
        <time>2018-09-17T12:12:40Z</time>
      </trkpt>
      <trkpt lat="44.67399" lon="1.46185">
        <ele>232.3</ele>
        <time>2018-09-17T12:12:50Z</time>
      </trkpt>
      <trkpt lat="44.67386" lon="1.46188">
        <ele>232.3</ele>
        <time>2018-09-17T12:13:00Z</time>
      </trkpt>
      <trkpt lat="44.67375" lon="1.46192">
        <ele>232.3</ele>
        <time>2018-09-17T12:13:09Z</time>
      </trkpt>
      <trkpt lat="44.67365" lon="1.46196">
        <ele>232.3</ele>
        <time>2018-09-17T12:13:18Z</time>
      </trkpt>
      <trkpt lat="44.67354" lon="1.462">
        <ele>232.3</ele>
        <time>2018-09-17T12:13:27Z</time>
      </trkpt>
      <trkpt lat="44.67344" lon="1.46203">
        <ele>231.81</ele>
        <time>2018-09-17T12:13:35Z</time>
      </trkpt>
      <trkpt lat="44.67332" lon="1.46207">
        <ele>230.85</ele>
        <time>2018-09-17T12:13:44Z</time>
      </trkpt>
      <trkpt lat="44.67322" lon="1.46207">
        <ele>229.89</ele>
        <time>2018-09-17T12:13:52Z</time>
      </trkpt>
      <trkpt lat="44.67313" lon="1.46196">
        <ele>229.89</ele>
        <time>2018-09-17T12:14:00Z</time>
      </trkpt>
      <trkpt lat="44.6731" lon="1.46182">
        <ele>229.89</ele>
        <time>2018-09-17T12:14:08Z</time>
      </trkpt>
      <trkpt lat="44.67308" lon="1.46167">
        <ele>229.89</ele>
        <time>2018-09-17T12:14:16Z</time>
      </trkpt>
      <trkpt lat="44.67307" lon="1.46152">
        <ele>231.33</ele>
        <time>2018-09-17T12:14:24Z</time>
      </trkpt>
      <trkpt lat="44.67307" lon="1.46137">
        <ele>231.33</ele>
        <time>2018-09-17T12:14:33Z</time>
      </trkpt>
      <trkpt lat="44.67304" lon="1.46121">
        <ele>231.33</ele>
        <time>2018-09-17T12:14:43Z</time>
      </trkpt>
      <trkpt lat="44.673" lon="1.46105">
        <ele>231.81</ele>
        <time>2018-09-17T12:14:52Z</time>
      </trkpt>
      <trkpt lat="44.67297" lon="1.46089">
        <ele>231.33</ele>
        <time>2018-09-17T12:15:00Z</time>
      </trkpt>
      <trkpt lat="44.67294" lon="1.46076">
        <ele>231.33</ele>
        <time>2018-09-17T12:15:08Z</time>
      </trkpt>
      <trkpt lat="44.67291" lon="1.46063">
        <ele>231.33</ele>
        <time>2018-09-17T12:15:16Z</time>
      </trkpt>
      <trkpt lat="44.67287" lon="1.4605">
        <ele>231.81</ele>
        <time>2018-09-17T12:15:25Z</time>
      </trkpt>
      <trkpt lat="44.67284" lon="1.46035">
        <ele>231.81</ele>
        <time>2018-09-17T12:15:33Z</time>
      </trkpt>
      <trkpt lat="44.6728" lon="1.46022">
        <ele>232.3</ele>
        <time>2018-09-17T12:15:41Z</time>
      </trkpt>
      <trkpt lat="44.67279" lon="1.46008">
        <ele>232.3</ele>
        <time>2018-09-17T12:15:49Z</time>
      </trkpt>
      <trkpt lat="44.67279" lon="1.45993">
        <ele>232.3</ele>
        <time>2018-09-17T12:15:57Z</time>
      </trkpt>
      <trkpt lat="44.67282" lon="1.45979">
        <ele>232.78</ele>
        <time>2018-09-17T12:16:06Z</time>
      </trkpt>
      <trkpt lat="44.67283" lon="1.45964">
        <ele>233.26</ele>
        <time>2018-09-17T12:16:14Z</time>
      </trkpt>
      <trkpt lat="44.67285" lon="1.4595">
        <ele>234.22</ele>
        <time>2018-09-17T12:16:22Z</time>
      </trkpt>
      <trkpt lat="44.67285" lon="1.45936">
        <ele>233.74</ele>
        <time>2018-09-17T12:16:31Z</time>
      </trkpt>
      <trkpt lat="44.67278" lon="1.45926">
        <ele>233.74</ele>
        <time>2018-09-17T12:16:39Z</time>
      </trkpt>
      <trkpt lat="44.6727" lon="1.45916">
        <ele>233.74</ele>
        <time>2018-09-17T12:16:47Z</time>
      </trkpt>
      <trkpt lat="44.67262" lon="1.45906">
        <ele>233.74</ele>
        <time>2018-09-17T12:16:55Z</time>
      </trkpt>
      <trkpt lat="44.67255" lon="1.45896">
        <ele>232.3</ele>
        <time>2018-09-17T12:17:03Z</time>
      </trkpt>
      <trkpt lat="44.67248" lon="1.45886">
        <ele>232.3</ele>
        <time>2018-09-17T12:17:11Z</time>
      </trkpt>
      <trkpt lat="44.67241" lon="1.45875">
        <ele>232.3</ele>
        <time>2018-09-17T12:17:19Z</time>
      </trkpt>
      <trkpt lat="44.67235" lon="1.45864">
        <ele>231.81</ele>
        <time>2018-09-17T12:17:27Z</time>
      </trkpt>
      <trkpt lat="44.6723" lon="1.45852">
        <ele>231.81</ele>
        <time>2018-09-17T12:17:35Z</time>
      </trkpt>
      <trkpt lat="44.67224" lon="1.4584">
        <ele>231.81</ele>
        <time>2018-09-17T12:17:43Z</time>
      </trkpt>
      <trkpt lat="44.67217" lon="1.45828">
        <ele>231.33</ele>
        <time>2018-09-17T12:17:51Z</time>
      </trkpt>
      <trkpt lat="44.6721" lon="1.45816">
        <ele>231.33</ele>
        <time>2018-09-17T12:17:59Z</time>
      </trkpt>
      <trkpt lat="44.67204" lon="1.45805">
        <ele>230.85</ele>
        <time>2018-09-17T12:18:07Z</time>
      </trkpt>
      <trkpt lat="44.67197" lon="1.45794">
        <ele>229.89</ele>
        <time>2018-09-17T12:18:15Z</time>
      </trkpt>
      <trkpt lat="44.6719" lon="1.45783">
        <ele>229.89</ele>
        <time>2018-09-17T12:18:23Z</time>
      </trkpt>
      <trkpt lat="44.67183" lon="1.45772">
        <ele>228.93</ele>
        <time>2018-09-17T12:18:31Z</time>
      </trkpt>
      <trkpt lat="44.67176" lon="1.45764">
        <ele>228.93</ele>
        <time>2018-09-17T12:18:39Z</time>
      </trkpt>
      <trkpt lat="44.67167" lon="1.45756">
        <ele>228.45</ele>
        <time>2018-09-17T12:18:47Z</time>
      </trkpt>
      <trkpt lat="44.67159" lon="1.45748">
        <ele>228.45</ele>
        <time>2018-09-17T12:18:55Z</time>
      </trkpt>
      <trkpt lat="44.6715" lon="1.4574">
        <ele>228.45</ele>
        <time>2018-09-17T12:19:04Z</time>
      </trkpt>
      <trkpt lat="44.67142" lon="1.45733">
        <ele>227.97</ele>
        <time>2018-09-17T12:19:12Z</time>
      </trkpt>
      <trkpt lat="44.67134" lon="1.45726">
        <ele>227.97</ele>
        <time>2018-09-17T12:19:20Z</time>
      </trkpt>
      <trkpt lat="44.67126" lon="1.45718">
        <ele>227.49</ele>
        <time>2018-09-17T12:19:28Z</time>
      </trkpt>
      <trkpt lat="44.67117" lon="1.4571">
        <ele>227.49</ele>
        <time>2018-09-17T12:19:36Z</time>
      </trkpt>
      <trkpt lat="44.67108" lon="1.457">
        <ele>227.49</ele>
        <time>2018-09-17T12:19:44Z</time>
      </trkpt>
      <trkpt lat="44.67101" lon="1.45691">
        <ele>227.01</ele>
        <time>2018-09-17T12:19:51Z</time>
      </trkpt>
      <trkpt lat="44.67093" lon="1.45682">
        <ele>227.01</ele>
        <time>2018-09-17T12:19:59Z</time>
      </trkpt>
      <trkpt lat="44.67086" lon="1.45672">
        <ele>227.01</ele>
        <time>2018-09-17T12:20:07Z</time>
      </trkpt>
      <trkpt lat="44.6708" lon="1.4566">
        <ele>227.01</ele>
        <time>2018-09-17T12:20:15Z</time>
      </trkpt>
      <trkpt lat="44.67074" lon="1.4565">
        <ele>226.53</ele>
        <time>2018-09-17T12:20:23Z</time>
      </trkpt>
      <trkpt lat="44.67067" lon="1.4564">
        <ele>226.53</ele>
        <time>2018-09-17T12:20:32Z</time>
      </trkpt>
      <trkpt lat="44.67061" lon="1.45629">
        <ele>226.53</ele>
        <time>2018-09-17T12:20:41Z</time>
      </trkpt>
      <trkpt lat="44.67064" lon="1.45615">
        <ele>226.53</ele>
        <time>2018-09-17T12:20:50Z</time>
      </trkpt>
      <trkpt lat="44.67067" lon="1.45601">
        <ele>226.53</ele>
        <time>2018-09-17T12:20:59Z</time>
      </trkpt>
      <trkpt lat="44.67071" lon="1.45586">
        <ele>227.97</ele>
        <time>2018-09-17T12:21:09Z</time>
      </trkpt>
      <trkpt lat="44.67073" lon="1.45571">
        <ele>228.45</ele>
        <time>2018-09-17T12:21:19Z</time>
      </trkpt>
      <trkpt lat="44.67075" lon="1.45557">
        <ele>228.93</ele>
        <time>2018-09-17T12:21:28Z</time>
      </trkpt>
      <trkpt lat="44.67077" lon="1.45543">
        <ele>229.89</ele>
        <time>2018-09-17T12:21:38Z</time>
      </trkpt>
      <trkpt lat="44.67078" lon="1.45528">
        <ele>230.85</ele>
        <time>2018-09-17T12:21:48Z</time>
      </trkpt>
      <trkpt lat="44.6708" lon="1.45512">
        <ele>231.81</ele>
        <time>2018-09-17T12:22:00Z</time>
      </trkpt>
      <trkpt lat="44.67081" lon="1.45496">
        <ele>233.26</ele>
        <time>2018-09-17T12:22:13Z</time>
      </trkpt>
      <trkpt lat="44.67084" lon="1.45481">
        <ele>234.22</ele>
        <time>2018-09-17T12:22:25Z</time>
      </trkpt>
      <trkpt lat="44.67084" lon="1.45465">
        <ele>235.66</ele>
        <time>2018-09-17T12:22:40Z</time>
      </trkpt>
      <trkpt lat="44.67091" lon="1.45448">
        <ele>236.14</ele>
        <time>2018-09-17T12:24:46Z</time>
      </trkpt>
      <trkpt lat="44.67088" lon="1.45436">
        <ele>238.06</ele>
        <time>2018-09-17T12:24:59Z</time>
      </trkpt>
      <trkpt lat="44.67085" lon="1.4539">
        <ele>243.35</ele>
        <time>2018-09-17T12:25:48Z</time>
      </trkpt>
      <trkpt lat="44.67088" lon="1.45353">
        <ele>247.2</ele>
        <time>2018-09-17T12:26:29Z</time>
      </trkpt>
      <trkpt lat="44.67091" lon="1.45333">
        <ele>249.12</ele>
        <time>2018-09-17T12:26:47Z</time>
      </trkpt>
      <trkpt lat="44.67095" lon="1.45313">
        <ele>251.04</ele>
        <time>2018-09-17T12:27:06Z</time>
      </trkpt>
      <trkpt lat="44.67101" lon="1.45297">
        <ele>252.96</ele>
        <time>2018-09-17T12:28:22Z</time>
      </trkpt>
      <trkpt lat="44.67102" lon="1.45281">
        <ele>254.89</ele>
        <time>2018-09-17T12:28:36Z</time>
      </trkpt>
      <trkpt lat="44.67105" lon="1.45266">
        <ele>257.29</ele>
        <time>2018-09-17T12:28:51Z</time>
      </trkpt>
      <trkpt lat="44.67108" lon="1.4525">
        <ele>259.21</ele>
        <time>2018-09-17T12:29:06Z</time>
      </trkpt>
      <trkpt lat="44.67112" lon="1.45227">
        <ele>262.58</ele>
        <time>2018-09-17T12:29:29Z</time>
      </trkpt>
      <trkpt lat="44.67118" lon="1.45206">
        <ele>265.94</ele>
        <time>2018-09-17T12:30:26Z</time>
      </trkpt>
      <trkpt lat="44.67123" lon="1.45176">
        <ele>272.67</ele>
        <time>2018-09-17T12:32:29Z</time>
      </trkpt>
      <trkpt lat="44.67125" lon="1.45159">
        <ele>276.52</ele>
        <time>2018-09-17T12:32:51Z</time>
      </trkpt>
      <trkpt lat="44.67126" lon="1.45139">
        <ele>279.88</ele>
        <time>2018-09-17T12:33:12Z</time>
      </trkpt>
      <trkpt lat="44.67124" lon="1.45123">
        <ele>285.65</ele>
        <time>2018-09-17T12:37:31Z</time>
      </trkpt>
      <trkpt lat="44.67129" lon="1.45104">
        <ele>289.49</ele>
        <time>2018-09-17T12:37:47Z</time>
      </trkpt>
      <trkpt lat="44.67129" lon="1.45077">
        <ele>293.34</ele>
        <time>2018-09-17T12:38:11Z</time>
      </trkpt>
      <trkpt lat="44.6713" lon="1.45057">
        <ele>296.7</ele>
        <time>2018-09-17T12:38:28Z</time>
      </trkpt>
      <trkpt lat="44.6713" lon="1.45036">
        <ele>299.11</ele>
        <time>2018-09-17T12:38:46Z</time>
      </trkpt>
      <trkpt lat="44.67131" lon="1.45013">
        <ele>301.99</ele>
        <time>2018-09-17T12:39:05Z</time>
      </trkpt>
      <trkpt lat="44.67129" lon="1.44996">
        <ele>304.39</ele>
        <time>2018-09-17T12:39:18Z</time>
      </trkpt>
      <trkpt lat="44.67124" lon="1.44976">
        <ele>306.8</ele>
        <time>2018-09-17T12:39:33Z</time>
      </trkpt>
      <trkpt lat="44.67124" lon="1.44958">
        <ele>308.72</ele>
        <time>2018-09-17T12:39:48Z</time>
      </trkpt>
      <trkpt lat="44.67124" lon="1.44941">
        <ele>310.64</ele>
        <time>2018-09-17T12:40:00Z</time>
      </trkpt>
      <trkpt lat="44.67121" lon="1.44927">
        <ele>313.05</ele>
        <time>2018-09-17T12:40:13Z</time>
      </trkpt>
      <trkpt lat="44.67117" lon="1.4491">
        <ele>314.97</ele>
        <time>2018-09-17T12:40:28Z</time>
      </trkpt>
      <trkpt lat="44.67117" lon="1.44893">
        <ele>316.89</ele>
        <time>2018-09-17T12:40:40Z</time>
      </trkpt>
      <trkpt lat="44.67114" lon="1.44878">
        <ele>318.33</ele>
        <time>2018-09-17T12:40:53Z</time>
      </trkpt>
      <trkpt lat="44.67109" lon="1.44861">
        <ele>320.26</ele>
        <time>2018-09-17T12:41:05Z</time>
      </trkpt>
      <trkpt lat="44.67105" lon="1.44849">
        <ele>321.22</ele>
        <time>2018-09-17T12:41:15Z</time>
      </trkpt>
      <trkpt lat="44.671" lon="1.44835">
        <ele>322.66</ele>
        <time>2018-09-17T12:41:26Z</time>
      </trkpt>
      <trkpt lat="44.67096" lon="1.4482">
        <ele>323.62</ele>
        <time>2018-09-17T12:41:38Z</time>
      </trkpt>
      <trkpt lat="44.67095" lon="1.44801">
        <ele>325.06</ele>
        <time>2018-09-17T12:41:49Z</time>
      </trkpt>
      <trkpt lat="44.67091" lon="1.44785">
        <ele>326.02</ele>
        <time>2018-09-17T12:41:59Z</time>
      </trkpt>
      <trkpt lat="44.67084" lon="1.4477">
        <ele>326.99</ele>
        <time>2018-09-17T12:42:11Z</time>
      </trkpt>
      <trkpt lat="44.67079" lon="1.44725">
        <ele>329.39</ele>
        <time>2018-09-17T12:45:27Z</time>
      </trkpt>
      <trkpt lat="44.67072" lon="1.44707">
        <ele>331.31</ele>
        <time>2018-09-17T12:45:44Z</time>
      </trkpt>
      <trkpt lat="44.67061" lon="1.44695">
        <ele>332.75</ele>
        <time>2018-09-17T12:46:01Z</time>
      </trkpt>
      <trkpt lat="44.67048" lon="1.44681">
        <ele>334.2</ele>
        <time>2018-09-17T12:46:19Z</time>
      </trkpt>
      <trkpt lat="44.6704" lon="1.44671">
        <ele>334.68</ele>
        <time>2018-09-17T12:46:32Z</time>
      </trkpt>
      <trkpt lat="44.67029" lon="1.44661">
        <ele>335.64</ele>
        <time>2018-09-17T12:46:45Z</time>
      </trkpt>
      <trkpt lat="44.6702" lon="1.44647">
        <ele>336.6</ele>
        <time>2018-09-17T12:47:05Z</time>
      </trkpt>
      <trkpt lat="44.67019" lon="1.44645">
        <ele>337.08</ele>
        <time>2018-09-17T12:47:15Z</time>
      </trkpt>
      <trkpt lat="44.67028" lon="1.4465">
        <ele>337.08</ele>
        <time>2018-09-17T12:47:25Z</time>
      </trkpt>
      <trkpt lat="44.67044" lon="1.44637">
        <ele>337.08</ele>
        <time>2018-09-17T12:47:40Z</time>
      </trkpt>
      <trkpt lat="44.67056" lon="1.4463">
        <ele>338.04</ele>
        <time>2018-09-17T12:48:04Z</time>
      </trkpt>
      <trkpt lat="44.67067" lon="1.44631">
        <ele>338.04</ele>
        <time>2018-09-17T12:48:36Z</time>
      </trkpt>
      <trkpt lat="44.67087" lon="1.44618">
        <ele>338.04</ele>
        <time>2018-09-17T12:48:59Z</time>
      </trkpt>
      <trkpt lat="44.67106" lon="1.44609">
        <ele>338.04</ele>
        <time>2018-09-17T12:49:24Z</time>
      </trkpt>
      <trkpt lat="44.67124" lon="1.44599">
        <ele>338.04</ele>
        <time>2018-09-17T12:49:44Z</time>
      </trkpt>
      <trkpt lat="44.67139" lon="1.4459">
        <ele>338.04</ele>
        <time>2018-09-17T12:50:05Z</time>
      </trkpt>
      <trkpt lat="44.67153" lon="1.44582">
        <ele>338.52</ele>
        <time>2018-09-17T12:50:21Z</time>
      </trkpt>
      <trkpt lat="44.6717" lon="1.4457">
        <ele>339.48</ele>
        <time>2018-09-17T12:50:43Z</time>
      </trkpt>
      <trkpt lat="44.67197" lon="1.44553">
        <ele>340.44</ele>
        <time>2018-09-17T12:51:08Z</time>
      </trkpt>
      <trkpt lat="44.67217" lon="1.44545">
        <ele>340.92</ele>
        <time>2018-09-17T12:51:28Z</time>
      </trkpt>
      <trkpt lat="44.67234" lon="1.4454">
        <ele>340.92</ele>
        <time>2018-09-17T12:51:42Z</time>
      </trkpt>
      <trkpt lat="44.67249" lon="1.44534">
        <ele>340.92</ele>
        <time>2018-09-17T12:51:59Z</time>
      </trkpt>
      <trkpt lat="44.67264" lon="1.44528">
        <ele>341.41</ele>
        <time>2018-09-17T12:52:12Z</time>
      </trkpt>
      <trkpt lat="44.67288" lon="1.44524">
        <ele>341.41</ele>
        <time>2018-09-17T12:52:33Z</time>
      </trkpt>
      <trkpt lat="44.67306" lon="1.44525">
        <ele>341.89</ele>
        <time>2018-09-17T12:52:50Z</time>
      </trkpt>
      <trkpt lat="44.67319" lon="1.44524">
        <ele>342.37</ele>
        <time>2018-09-17T12:53:03Z</time>
      </trkpt>
      <trkpt lat="44.67331" lon="1.44524">
        <ele>342.85</ele>
        <time>2018-09-17T12:53:15Z</time>
      </trkpt>
      <trkpt lat="44.67345" lon="1.44523">
        <ele>343.81</ele>
        <time>2018-09-17T12:53:29Z</time>
      </trkpt>
      <trkpt lat="44.67365" lon="1.44522">
        <ele>346.21</ele>
        <time>2018-09-17T12:53:48Z</time>
      </trkpt>
      <trkpt lat="44.6738" lon="1.44521">
        <ele>347.17</ele>
        <time>2018-09-17T12:54:04Z</time>
      </trkpt>
      <trkpt lat="44.67395" lon="1.44517">
        <ele>349.58</ele>
        <time>2018-09-17T12:54:22Z</time>
      </trkpt>
      <trkpt lat="44.67406" lon="1.44513">
        <ele>351.98</ele>
        <time>2018-09-17T12:54:39Z</time>
      </trkpt>
      <trkpt lat="44.67419" lon="1.44506">
        <ele>353.9</ele>
        <time>2018-09-17T12:54:57Z</time>
      </trkpt>
      <trkpt lat="44.67431" lon="1.44498">
        <ele>356.31</ele>
        <time>2018-09-17T12:55:17Z</time>
      </trkpt>
      <trkpt lat="44.67451" lon="1.44475">
        <ele>359.19</ele>
        <time>2018-09-17T12:56:22Z</time>
      </trkpt>
      <trkpt lat="44.67462" lon="1.44449">
        <ele>361.11</ele>
        <time>2018-09-17T12:56:46Z</time>
      </trkpt>
      <trkpt lat="44.67474" lon="1.44416">
        <ele>364</ele>
        <time>2018-09-17T12:57:13Z</time>
      </trkpt>
      <trkpt lat="44.67481" lon="1.44364">
        <ele>367.84</ele>
        <time>2018-09-17T12:59:34Z</time>
      </trkpt>
      <trkpt lat="44.67485" lon="1.44333">
        <ele>370.73</ele>
        <time>2018-09-17T13:00:03Z</time>
      </trkpt>
      <trkpt lat="44.67497" lon="1.44309">
        <ele>372.17</ele>
        <time>2018-09-17T13:00:27Z</time>
      </trkpt>
      <trkpt lat="44.67507" lon="1.44288">
        <ele>372.65</ele>
        <time>2018-09-17T13:00:45Z</time>
      </trkpt>
      <trkpt lat="44.67533" lon="1.44248">
        <ele>374.09</ele>
        <time>2018-09-17T13:01:21Z</time>
      </trkpt>
      <trkpt lat="44.67548" lon="1.44218">
        <ele>374.09</ele>
        <time>2018-09-17T13:01:52Z</time>
      </trkpt>
      <trkpt lat="44.67563" lon="1.44195">
        <ele>374.09</ele>
        <time>2018-09-17T13:02:05Z</time>
      </trkpt>
      <trkpt lat="44.67567" lon="1.44179">
        <ele>374.09</ele>
        <time>2018-09-17T13:02:18Z</time>
      </trkpt>
      <trkpt lat="44.67573" lon="1.44159">
        <ele>374.09</ele>
        <time>2018-09-17T13:02:30Z</time>
      </trkpt>
      <trkpt lat="44.67577" lon="1.44142">
        <ele>374.09</ele>
        <time>2018-09-17T13:02:41Z</time>
      </trkpt>
      <trkpt lat="44.6758" lon="1.44126">
        <ele>373.61</ele>
        <time>2018-09-17T13:02:51Z</time>
      </trkpt>
      <trkpt lat="44.67586" lon="1.44111">
        <ele>373.61</ele>
        <time>2018-09-17T13:02:59Z</time>
      </trkpt>
      <trkpt lat="44.67589" lon="1.44096">
        <ele>373.61</ele>
        <time>2018-09-17T13:03:07Z</time>
      </trkpt>
      <trkpt lat="44.67592" lon="1.44082">
        <ele>373.61</ele>
        <time>2018-09-17T13:03:16Z</time>
      </trkpt>
      <trkpt lat="44.67596" lon="1.44064">
        <ele>373.61</ele>
        <time>2018-09-17T13:03:26Z</time>
      </trkpt>
      <trkpt lat="44.67602" lon="1.44038">
        <ele>373.61</ele>
        <time>2018-09-17T13:03:44Z</time>
      </trkpt>
      <trkpt lat="44.67608" lon="1.44008">
        <ele>373.61</ele>
        <time>2018-09-17T13:04:01Z</time>
      </trkpt>
      <trkpt lat="44.67615" lon="1.4399">
        <ele>374.09</ele>
        <time>2018-09-17T13:04:12Z</time>
      </trkpt>
      <trkpt lat="44.6762" lon="1.43974">
        <ele>373.61</ele>
        <time>2018-09-17T13:04:23Z</time>
      </trkpt>
      <trkpt lat="44.67624" lon="1.43959">
        <ele>374.57</ele>
        <time>2018-09-17T13:04:35Z</time>
      </trkpt>
      <trkpt lat="44.6763" lon="1.43941">
        <ele>375.53</ele>
        <time>2018-09-17T13:04:49Z</time>
      </trkpt>
      <trkpt lat="44.67633" lon="1.43923">
        <ele>376.49</ele>
        <time>2018-09-17T13:05:02Z</time>
      </trkpt>
      <trkpt lat="44.67639" lon="1.43904">
        <ele>377.45</ele>
        <time>2018-09-17T13:05:15Z</time>
      </trkpt>
      <trkpt lat="44.67647" lon="1.43884">
        <ele>378.9</ele>
        <time>2018-09-17T13:05:27Z</time>
      </trkpt>
      <trkpt lat="44.67655" lon="1.43868">
        <ele>379.86</ele>
        <time>2018-09-17T13:05:40Z</time>
      </trkpt>
      <trkpt lat="44.67661" lon="1.43851">
        <ele>381.3</ele>
        <time>2018-09-17T13:05:52Z</time>
      </trkpt>
      <trkpt lat="44.67667" lon="1.43833">
        <ele>382.26</ele>
        <time>2018-09-17T13:06:05Z</time>
      </trkpt>
      <trkpt lat="44.67673" lon="1.43818">
        <ele>382.74</ele>
        <time>2018-09-17T13:06:18Z</time>
      </trkpt>
      <trkpt lat="44.67679" lon="1.43801">
        <ele>382.74</ele>
        <time>2018-09-17T13:06:29Z</time>
      </trkpt>
      <trkpt lat="44.67683" lon="1.43785">
        <ele>382.74</ele>
        <time>2018-09-17T13:06:38Z</time>
      </trkpt>
      <trkpt lat="44.67686" lon="1.43772">
        <ele>382.74</ele>
        <time>2018-09-17T13:06:46Z</time>
      </trkpt>
      <trkpt lat="44.67688" lon="1.43759">
        <ele>382.74</ele>
        <time>2018-09-17T13:06:54Z</time>
      </trkpt>
      <trkpt lat="44.6769" lon="1.43746">
        <ele>382.74</ele>
        <time>2018-09-17T13:07:02Z</time>
      </trkpt>
      <trkpt lat="44.6769" lon="1.43732">
        <ele>382.74</ele>
        <time>2018-09-17T13:07:10Z</time>
      </trkpt>
      <trkpt lat="44.67688" lon="1.43718">
        <ele>382.74</ele>
        <time>2018-09-17T13:07:20Z</time>
      </trkpt>
      <trkpt lat="44.67687" lon="1.43705">
        <ele>382.74</ele>
        <time>2018-09-17T13:07:28Z</time>
      </trkpt>
      <trkpt lat="44.67691" lon="1.43694">
        <ele>382.74</ele>
        <time>2018-09-17T13:07:37Z</time>
      </trkpt>
      <trkpt lat="44.677" lon="1.43697">
        <ele>382.74</ele>
        <time>2018-09-17T13:07:45Z</time>
      </trkpt>
      <trkpt lat="44.67711" lon="1.43702">
        <ele>381.78</ele>
        <time>2018-09-17T13:07:55Z</time>
      </trkpt>
      <trkpt lat="44.67721" lon="1.43708">
        <ele>380.82</ele>
        <time>2018-09-17T13:08:05Z</time>
      </trkpt>
      <trkpt lat="44.6773" lon="1.43717">
        <ele>379.86</ele>
        <time>2018-09-17T13:08:16Z</time>
      </trkpt>
      <trkpt lat="44.6774" lon="1.43725">
        <ele>378.42</ele>
        <time>2018-09-17T13:08:26Z</time>
      </trkpt>
      <trkpt lat="44.67749" lon="1.43734">
        <ele>377.45</ele>
        <time>2018-09-17T13:08:36Z</time>
      </trkpt>
      <trkpt lat="44.67759" lon="1.43745">
        <ele>376.01</ele>
        <time>2018-09-17T13:08:47Z</time>
      </trkpt>
      <trkpt lat="44.6777" lon="1.43754">
        <ele>374.57</ele>
        <time>2018-09-17T13:08:59Z</time>
      </trkpt>
      <trkpt lat="44.67778" lon="1.43763">
        <ele>372.65</ele>
        <time>2018-09-17T13:09:09Z</time>
      </trkpt>
      <trkpt lat="44.67786" lon="1.43772">
        <ele>371.21</ele>
        <time>2018-09-17T13:09:18Z</time>
      </trkpt>
      <trkpt lat="44.67797" lon="1.4378">
        <ele>370.24</ele>
        <time>2018-09-17T13:09:28Z</time>
      </trkpt>
      <trkpt lat="44.67808" lon="1.43789">
        <ele>369.28</ele>
        <time>2018-09-17T13:09:37Z</time>
      </trkpt>
      <trkpt lat="44.67817" lon="1.43798">
        <ele>368.8</ele>
        <time>2018-09-17T13:09:46Z</time>
      </trkpt>
      <trkpt lat="44.67824" lon="1.43806">
        <ele>367.84</ele>
        <time>2018-09-17T13:09:55Z</time>
      </trkpt>
      <trkpt lat="44.67833" lon="1.43815">
        <ele>366.88</ele>
        <time>2018-09-17T13:10:04Z</time>
      </trkpt>
      <trkpt lat="44.67843" lon="1.43824">
        <ele>366.88</ele>
        <time>2018-09-17T13:10:13Z</time>
      </trkpt>
      <trkpt lat="44.6785" lon="1.43835">
        <ele>365.92</ele>
        <time>2018-09-17T13:10:22Z</time>
      </trkpt>
      <trkpt lat="44.67858" lon="1.43845">
        <ele>365.44</ele>
        <time>2018-09-17T13:10:31Z</time>
      </trkpt>
      <trkpt lat="44.67866" lon="1.43854">
        <ele>364.96</ele>
        <time>2018-09-17T13:10:40Z</time>
      </trkpt>
      <trkpt lat="44.67874" lon="1.43862">
        <ele>364.48</ele>
        <time>2018-09-17T13:10:49Z</time>
      </trkpt>
      <trkpt lat="44.67883" lon="1.43868">
        <ele>363.52</ele>
        <time>2018-09-17T13:10:58Z</time>
      </trkpt>
      <trkpt lat="44.67893" lon="1.43873">
        <ele>362.55</ele>
        <time>2018-09-17T13:11:07Z</time>
      </trkpt>
      <trkpt lat="44.67903" lon="1.43876">
        <ele>361.59</ele>
        <time>2018-09-17T13:11:15Z</time>
      </trkpt>
      <trkpt lat="44.67914" lon="1.4388">
        <ele>360.63</ele>
        <time>2018-09-17T13:11:24Z</time>
      </trkpt>
      <trkpt lat="44.67924" lon="1.43884">
        <ele>360.15</ele>
        <time>2018-09-17T13:11:33Z</time>
      </trkpt>
      <trkpt lat="44.67934" lon="1.43888">
        <ele>358.71</ele>
        <time>2018-09-17T13:11:42Z</time>
      </trkpt>
      <trkpt lat="44.67944" lon="1.4389">
        <ele>358.23</ele>
        <time>2018-09-17T13:11:51Z</time>
      </trkpt>
      <trkpt lat="44.67955" lon="1.43893">
        <ele>357.27</ele>
        <time>2018-09-17T13:12:00Z</time>
      </trkpt>
      <trkpt lat="44.67966" lon="1.43896">
        <ele>356.79</ele>
        <time>2018-09-17T13:12:09Z</time>
      </trkpt>
      <trkpt lat="44.67977" lon="1.43899">
        <ele>355.34</ele>
        <time>2018-09-17T13:12:20Z</time>
      </trkpt>
      <trkpt lat="44.67988" lon="1.43903">
        <ele>354.38</ele>
        <time>2018-09-17T13:12:32Z</time>
      </trkpt>
      <trkpt lat="44.67999" lon="1.43905">
        <ele>353.42</ele>
        <time>2018-09-17T13:12:42Z</time>
      </trkpt>
      <trkpt lat="44.68011" lon="1.43909">
        <ele>352.94</ele>
        <time>2018-09-17T13:12:51Z</time>
      </trkpt>
      <trkpt lat="44.68023" lon="1.43912">
        <ele>351.98</ele>
        <time>2018-09-17T13:13:01Z</time>
      </trkpt>
      <trkpt lat="44.68034" lon="1.43914">
        <ele>351.02</ele>
        <time>2018-09-17T13:13:10Z</time>
      </trkpt>
      <trkpt lat="44.68046" lon="1.43915">
        <ele>350.54</ele>
        <time>2018-09-17T13:13:20Z</time>
      </trkpt>
      <trkpt lat="44.68057" lon="1.43915">
        <ele>349.58</ele>
        <time>2018-09-17T13:13:29Z</time>
      </trkpt>
      <trkpt lat="44.68068" lon="1.43914">
        <ele>349.1</ele>
        <time>2018-09-17T13:13:39Z</time>
      </trkpt>
      <trkpt lat="44.68079" lon="1.43912">
        <ele>348.62</ele>
        <time>2018-09-17T13:13:48Z</time>
      </trkpt>
      <trkpt lat="44.68089" lon="1.43909">
        <ele>348.13</ele>
        <time>2018-09-17T13:13:57Z</time>
      </trkpt>
      <trkpt lat="44.68099" lon="1.43905">
        <ele>347.65</ele>
        <time>2018-09-17T13:14:07Z</time>
      </trkpt>
      <trkpt lat="44.6811" lon="1.43902">
        <ele>346.69</ele>
        <time>2018-09-17T13:14:17Z</time>
      </trkpt>
      <trkpt lat="44.68122" lon="1.43899">
        <ele>345.73</ele>
        <time>2018-09-17T13:14:27Z</time>
      </trkpt>
      <trkpt lat="44.68139" lon="1.43903">
        <ele>345.25</ele>
        <time>2018-09-17T13:15:14Z</time>
      </trkpt>
      <trkpt lat="44.68149" lon="1.43905">
        <ele>345.25</ele>
        <time>2018-09-17T13:15:24Z</time>
      </trkpt>
      <trkpt lat="44.6816" lon="1.43908">
        <ele>344.77</ele>
        <time>2018-09-17T13:15:35Z</time>
      </trkpt>
      <trkpt lat="44.68171" lon="1.43911">
        <ele>344.77</ele>
        <time>2018-09-17T13:15:44Z</time>
      </trkpt>
      <trkpt lat="44.68181" lon="1.43914">
        <ele>344.77</ele>
        <time>2018-09-17T13:15:52Z</time>
      </trkpt>
      <trkpt lat="44.68192" lon="1.43919">
        <ele>344.77</ele>
        <time>2018-09-17T13:16:01Z</time>
      </trkpt>
      <trkpt lat="44.68201" lon="1.43924">
        <ele>344.77</ele>
        <time>2018-09-17T13:16:09Z</time>
      </trkpt>
      <trkpt lat="44.68211" lon="1.43929">
        <ele>344.77</ele>
        <time>2018-09-17T13:16:18Z</time>
      </trkpt>
      <trkpt lat="44.68219" lon="1.43936">
        <ele>344.77</ele>
        <time>2018-09-17T13:16:27Z</time>
      </trkpt>
      <trkpt lat="44.68227" lon="1.43943">
        <ele>346.21</ele>
        <time>2018-09-17T13:16:36Z</time>
      </trkpt>
      <trkpt lat="44.68236" lon="1.43952">
        <ele>346.21</ele>
        <time>2018-09-17T13:16:48Z</time>
      </trkpt>
      <trkpt lat="44.68245" lon="1.43959">
        <ele>346.69</ele>
        <time>2018-09-17T13:16:58Z</time>
      </trkpt>
      <trkpt lat="44.68254" lon="1.43967">
        <ele>347.17</ele>
        <time>2018-09-17T13:17:07Z</time>
      </trkpt>
      <trkpt lat="44.68262" lon="1.43974">
        <ele>347.17</ele>
        <time>2018-09-17T13:17:16Z</time>
      </trkpt>
      <trkpt lat="44.6827" lon="1.43981">
        <ele>347.65</ele>
        <time>2018-09-17T13:17:25Z</time>
      </trkpt>
      <trkpt lat="44.68279" lon="1.4399">
        <ele>347.65</ele>
        <time>2018-09-17T13:17:34Z</time>
      </trkpt>
      <trkpt lat="44.68288" lon="1.43998">
        <ele>348.62</ele>
        <time>2018-09-17T13:17:43Z</time>
      </trkpt>
      <trkpt lat="44.68298" lon="1.44005">
        <ele>349.1</ele>
        <time>2018-09-17T13:17:52Z</time>
      </trkpt>
      <trkpt lat="44.68307" lon="1.44011">
        <ele>349.58</ele>
        <time>2018-09-17T13:18:01Z</time>
      </trkpt>
      <trkpt lat="44.68315" lon="1.44017">
        <ele>350.06</ele>
        <time>2018-09-17T13:18:09Z</time>
      </trkpt>
      <trkpt lat="44.68325" lon="1.44023">
        <ele>350.06</ele>
        <time>2018-09-17T13:18:18Z</time>
      </trkpt>
      <trkpt lat="44.68334" lon="1.44029">
        <ele>350.54</ele>
        <time>2018-09-17T13:18:27Z</time>
      </trkpt>
      <trkpt lat="44.68344" lon="1.44036">
        <ele>350.54</ele>
        <time>2018-09-17T13:18:36Z</time>
      </trkpt>
      <trkpt lat="44.68353" lon="1.44043">
        <ele>351.02</ele>
        <time>2018-09-17T13:18:44Z</time>
      </trkpt>
      <trkpt lat="44.68361" lon="1.4405">
        <ele>351.02</ele>
        <time>2018-09-17T13:18:53Z</time>
      </trkpt>
      <trkpt lat="44.6837" lon="1.44058">
        <ele>351.98</ele>
        <time>2018-09-17T13:19:02Z</time>
      </trkpt>
      <trkpt lat="44.68379" lon="1.44066">
        <ele>352.46</ele>
        <time>2018-09-17T13:19:11Z</time>
      </trkpt>
      <trkpt lat="44.68387" lon="1.44075">
        <ele>353.42</ele>
        <time>2018-09-17T13:19:21Z</time>
      </trkpt>
      <trkpt lat="44.68397" lon="1.44084">
        <ele>353.9</ele>
        <time>2018-09-17T13:19:31Z</time>
      </trkpt>
      <trkpt lat="44.68404" lon="1.44092">
        <ele>353.9</ele>
        <time>2018-09-17T13:19:40Z</time>
      </trkpt>
      <trkpt lat="44.68412" lon="1.441">
        <ele>354.38</ele>
        <time>2018-09-17T13:19:49Z</time>
      </trkpt>
      <trkpt lat="44.68421" lon="1.4411">
        <ele>354.38</ele>
        <time>2018-09-17T13:19:59Z</time>
      </trkpt>
      <trkpt lat="44.68429" lon="1.44121">
        <ele>354.38</ele>
        <time>2018-09-17T13:20:09Z</time>
      </trkpt>
      <trkpt lat="44.68435" lon="1.44134">
        <ele>354.38</ele>
        <time>2018-09-17T13:20:21Z</time>
      </trkpt>
      <trkpt lat="44.68446" lon="1.44145">
        <ele>354.38</ele>
        <time>2018-09-17T13:25:02Z</time>
      </trkpt>
      <trkpt lat="44.68453" lon="1.44152">
        <ele>354.38</ele>
        <time>2018-09-17T13:25:11Z</time>
      </trkpt>
      <trkpt lat="44.68459" lon="1.44163">
        <ele>352.94</ele>
        <time>2018-09-17T13:25:19Z</time>
      </trkpt>
      <trkpt lat="44.68465" lon="1.44174">
        <ele>351.98</ele>
        <time>2018-09-17T13:25:28Z</time>
      </trkpt>
      <trkpt lat="44.68471" lon="1.44187">
        <ele>351.02</ele>
        <time>2018-09-17T13:25:38Z</time>
      </trkpt>
      <trkpt lat="44.68477" lon="1.44198">
        <ele>351.02</ele>
        <time>2018-09-17T13:25:46Z</time>
      </trkpt>
      <trkpt lat="44.68483" lon="1.44211">
        <ele>350.54</ele>
        <time>2018-09-17T13:25:54Z</time>
      </trkpt>
      <trkpt lat="44.68488" lon="1.44222">
        <ele>350.06</ele>
        <time>2018-09-17T13:26:02Z</time>
      </trkpt>
      <trkpt lat="44.68493" lon="1.44235">
        <ele>349.58</ele>
        <time>2018-09-17T13:26:10Z</time>
      </trkpt>
      <trkpt lat="44.68499" lon="1.44248">
        <ele>349.1</ele>
        <time>2018-09-17T13:26:18Z</time>
      </trkpt>
      <trkpt lat="44.68505" lon="1.4426">
        <ele>349.1</ele>
        <time>2018-09-17T13:26:26Z</time>
      </trkpt>
      <trkpt lat="44.6851" lon="1.44273">
        <ele>348.62</ele>
        <time>2018-09-17T13:26:35Z</time>
      </trkpt>
      <trkpt lat="44.68516" lon="1.44287">
        <ele>348.62</ele>
        <time>2018-09-17T13:26:43Z</time>
      </trkpt>
      <trkpt lat="44.68523" lon="1.44299">
        <ele>348.62</ele>
        <time>2018-09-17T13:26:52Z</time>
      </trkpt>
      <trkpt lat="44.6853" lon="1.44308">
        <ele>348.62</ele>
        <time>2018-09-17T13:27:00Z</time>
      </trkpt>
      <trkpt lat="44.68536" lon="1.44319">
        <ele>348.62</ele>
        <time>2018-09-17T13:27:09Z</time>
      </trkpt>
      <trkpt lat="44.68545" lon="1.4433">
        <ele>348.62</ele>
        <time>2018-09-17T13:27:19Z</time>
      </trkpt>
      <trkpt lat="44.68553" lon="1.44339">
        <ele>348.62</ele>
        <time>2018-09-17T13:27:30Z</time>
      </trkpt>
      <trkpt lat="44.6856" lon="1.44349">
        <ele>348.62</ele>
        <time>2018-09-17T13:27:38Z</time>
      </trkpt>
      <trkpt lat="44.68568" lon="1.44359">
        <ele>349.58</ele>
        <time>2018-09-17T13:27:48Z</time>
      </trkpt>
      <trkpt lat="44.68576" lon="1.44369">
        <ele>350.06</ele>
        <time>2018-09-17T13:28:02Z</time>
      </trkpt>
      <trkpt lat="44.68584" lon="1.4438">
        <ele>350.54</ele>
        <time>2018-09-17T13:28:12Z</time>
      </trkpt>
      <trkpt lat="44.68592" lon="1.4439">
        <ele>351.02</ele>
        <time>2018-09-17T13:28:23Z</time>
      </trkpt>
      <trkpt lat="44.68599" lon="1.44402">
        <ele>351.98</ele>
        <time>2018-09-17T13:28:33Z</time>
      </trkpt>
      <trkpt lat="44.68605" lon="1.44412">
        <ele>352.46</ele>
        <time>2018-09-17T13:28:52Z</time>
      </trkpt>
      <trkpt lat="44.68613" lon="1.44423">
        <ele>352.46</ele>
        <time>2018-09-17T13:29:03Z</time>
      </trkpt>
      <trkpt lat="44.68621" lon="1.44435">
        <ele>353.42</ele>
        <time>2018-09-17T13:29:14Z</time>
      </trkpt>
      <trkpt lat="44.68632" lon="1.44445">
        <ele>353.9</ele>
        <time>2018-09-17T13:29:25Z</time>
      </trkpt>
      <trkpt lat="44.68642" lon="1.44454">
        <ele>354.38</ele>
        <time>2018-09-17T13:29:36Z</time>
      </trkpt>
      <trkpt lat="44.68647" lon="1.44462">
        <ele>354.86</ele>
        <time>2018-09-17T13:29:59Z</time>
      </trkpt>
      <trkpt lat="44.6866" lon="1.4447">
        <ele>354.86</ele>
        <time>2018-09-17T13:30:11Z</time>
      </trkpt>
      <trkpt lat="44.6867" lon="1.44478">
        <ele>354.86</ele>
        <time>2018-09-17T13:30:26Z</time>
      </trkpt>
      <trkpt lat="44.68681" lon="1.44483">
        <ele>353.42</ele>
        <time>2018-09-17T13:30:35Z</time>
      </trkpt>
      <trkpt lat="44.68691" lon="1.44489">
        <ele>352.94</ele>
        <time>2018-09-17T13:30:43Z</time>
      </trkpt>
      <trkpt lat="44.68702" lon="1.44493">
        <ele>352.46</ele>
        <time>2018-09-17T13:30:51Z</time>
      </trkpt>
      <trkpt lat="44.68714" lon="1.44497">
        <ele>352.46</ele>
        <time>2018-09-17T13:31:06Z</time>
      </trkpt>
      <trkpt lat="44.68726" lon="1.44499">
        <ele>352.46</ele>
        <time>2018-09-17T13:31:15Z</time>
      </trkpt>
      <trkpt lat="44.68737" lon="1.44501">
        <ele>352.46</ele>
        <time>2018-09-17T13:31:24Z</time>
      </trkpt>
      <trkpt lat="44.68747" lon="1.44505">
        <ele>352.46</ele>
        <time>2018-09-17T13:31:33Z</time>
      </trkpt>
      <trkpt lat="44.68757" lon="1.44509">
        <ele>352.46</ele>
        <time>2018-09-17T13:31:43Z</time>
      </trkpt>
      <trkpt lat="44.68769" lon="1.44514">
        <ele>352.46</ele>
        <time>2018-09-17T13:31:54Z</time>
      </trkpt>
      <trkpt lat="44.68781" lon="1.44521">
        <ele>352.46</ele>
        <time>2018-09-17T13:32:06Z</time>
      </trkpt>
      <trkpt lat="44.68793" lon="1.44528">
        <ele>352.46</ele>
        <time>2018-09-17T13:32:17Z</time>
      </trkpt>
      <trkpt lat="44.68808" lon="1.44538">
        <ele>353.9</ele>
        <time>2018-09-17T13:32:31Z</time>
      </trkpt>
      <trkpt lat="44.68821" lon="1.44546">
        <ele>353.9</ele>
        <time>2018-09-17T13:32:42Z</time>
      </trkpt>
      <trkpt lat="44.68834" lon="1.44554">
        <ele>354.86</ele>
        <time>2018-09-17T13:32:53Z</time>
      </trkpt>
      <trkpt lat="44.68845" lon="1.44563">
        <ele>355.34</ele>
        <time>2018-09-17T13:33:03Z</time>
      </trkpt>
      <trkpt lat="44.68855" lon="1.44572">
        <ele>356.31</ele>
        <time>2018-09-17T13:33:13Z</time>
      </trkpt>
      <trkpt lat="44.68864" lon="1.44582">
        <ele>357.27</ele>
        <time>2018-09-17T13:33:22Z</time>
      </trkpt>
      <trkpt lat="44.68875" lon="1.44593">
        <ele>357.75</ele>
        <time>2018-09-17T13:33:32Z</time>
      </trkpt>
      <trkpt lat="44.68886" lon="1.44605">
        <ele>358.23</ele>
        <time>2018-09-17T13:33:41Z</time>
      </trkpt>
      <trkpt lat="44.68896" lon="1.44615">
        <ele>357.75</ele>
        <time>2018-09-17T13:33:51Z</time>
      </trkpt>
      <trkpt lat="44.68904" lon="1.44627">
        <ele>356.79</ele>
        <time>2018-09-17T13:34:02Z</time>
      </trkpt>
      <trkpt lat="44.68913" lon="1.44637">
        <ele>356.31</ele>
        <time>2018-09-17T13:34:12Z</time>
      </trkpt>
      <trkpt lat="44.6892" lon="1.44652">
        <ele>355.83</ele>
        <time>2018-09-17T13:34:21Z</time>
      </trkpt>
      <trkpt lat="44.68926" lon="1.44664">
        <ele>355.34</ele>
        <time>2018-09-17T13:34:30Z</time>
      </trkpt>
      <trkpt lat="44.68929" lon="1.44678">
        <ele>355.34</ele>
        <time>2018-09-17T13:34:39Z</time>
      </trkpt>
      <trkpt lat="44.68933" lon="1.44692">
        <ele>355.34</ele>
        <time>2018-09-17T13:34:48Z</time>
      </trkpt>
      <trkpt lat="44.68937" lon="1.44707">
        <ele>354.86</ele>
        <time>2018-09-17T13:34:57Z</time>
      </trkpt>
      <trkpt lat="44.68941" lon="1.44727">
        <ele>354.86</ele>
        <time>2018-09-17T13:35:09Z</time>
      </trkpt>
      <trkpt lat="44.68945" lon="1.44741">
        <ele>354.38</ele>
        <time>2018-09-17T13:35:18Z</time>
      </trkpt>
      <trkpt lat="44.6895" lon="1.44756">
        <ele>354.38</ele>
        <time>2018-09-17T13:35:27Z</time>
      </trkpt>
      <trkpt lat="44.68962" lon="1.44785">
        <ele>353.9</ele>
        <time>2018-09-17T13:35:46Z</time>
      </trkpt>
      <trkpt lat="44.68971" lon="1.44805">
        <ele>353.9</ele>
        <time>2018-09-17T13:35:58Z</time>
      </trkpt>
      <trkpt lat="44.6898" lon="1.44817">
        <ele>353.9</ele>
        <time>2018-09-17T13:36:08Z</time>
      </trkpt>
      <trkpt lat="44.68989" lon="1.44828">
        <ele>352.46</ele>
        <time>2018-09-17T13:36:18Z</time>
      </trkpt>
      <trkpt lat="44.68999" lon="1.4484">
        <ele>351.98</ele>
        <time>2018-09-17T13:36:34Z</time>
      </trkpt>
      <trkpt lat="44.69007" lon="1.44852">
        <ele>351.02</ele>
        <time>2018-09-17T13:36:45Z</time>
      </trkpt>
      <trkpt lat="44.69013" lon="1.44864">
        <ele>350.06</ele>
        <time>2018-09-17T13:36:55Z</time>
      </trkpt>
      <trkpt lat="44.69017" lon="1.44874">
        <ele>348.62</ele>
        <time>2018-09-17T13:37:25Z</time>
      </trkpt>
      <trkpt lat="44.69026" lon="1.44881">
        <ele>348.13</ele>
        <time>2018-09-17T13:37:50Z</time>
      </trkpt>
      <trkpt lat="44.69031" lon="1.44881">
        <ele>348.13</ele>
        <time>2018-09-17T13:38:14Z</time>
      </trkpt>
      <trkpt lat="44.69038" lon="1.44892">
        <ele>347.65</ele>
        <time>2018-09-17T13:38:53Z</time>
      </trkpt>
      <trkpt lat="44.69046" lon="1.449">
        <ele>347.65</ele>
        <time>2018-09-17T13:39:03Z</time>
      </trkpt>
      <trkpt lat="44.69053" lon="1.44911">
        <ele>347.17</ele>
        <time>2018-09-17T13:39:12Z</time>
      </trkpt>
      <trkpt lat="44.6906" lon="1.44922">
        <ele>346.69</ele>
        <time>2018-09-17T13:39:22Z</time>
      </trkpt>
      <trkpt lat="44.69066" lon="1.44933">
        <ele>346.69</ele>
        <time>2018-09-17T13:39:31Z</time>
      </trkpt>
      <trkpt lat="44.69075" lon="1.44945">
        <ele>346.21</ele>
        <time>2018-09-17T13:39:41Z</time>
      </trkpt>
      <trkpt lat="44.69084" lon="1.44954">
        <ele>345.73</ele>
        <time>2018-09-17T13:39:52Z</time>
      </trkpt>
      <trkpt lat="44.69091" lon="1.44968">
        <ele>345.73</ele>
        <time>2018-09-17T13:40:05Z</time>
      </trkpt>
      <trkpt lat="44.69103" lon="1.44989">
        <ele>345.73</ele>
        <time>2018-09-17T13:40:21Z</time>
      </trkpt>
      <trkpt lat="44.69114" lon="1.45019">
        <ele>345.25</ele>
        <time>2018-09-17T13:40:42Z</time>
      </trkpt>
      <trkpt lat="44.69119" lon="1.45042">
        <ele>345.25</ele>
        <time>2018-09-17T13:40:55Z</time>
      </trkpt>
      <trkpt lat="44.69122" lon="1.45062">
        <ele>345.25</ele>
        <time>2018-09-17T13:41:06Z</time>
      </trkpt>
      <trkpt lat="44.69131" lon="1.45093">
        <ele>344.77</ele>
        <time>2018-09-17T13:41:32Z</time>
      </trkpt>
      <trkpt lat="44.69144" lon="1.45127">
        <ele>345.73</ele>
        <time>2018-09-17T13:41:58Z</time>
      </trkpt>
      <trkpt lat="44.69152" lon="1.45154">
        <ele>346.21</ele>
        <time>2018-09-17T13:42:15Z</time>
      </trkpt>
      <trkpt lat="44.6916" lon="1.45169">
        <ele>346.69</ele>
        <time>2018-09-17T13:42:26Z</time>
      </trkpt>
      <trkpt lat="44.6917" lon="1.45185">
        <ele>346.69</ele>
        <time>2018-09-17T13:42:37Z</time>
      </trkpt>
      <trkpt lat="44.69182" lon="1.45203">
        <ele>346.21</ele>
        <time>2018-09-17T13:42:50Z</time>
      </trkpt>
      <trkpt lat="44.69187" lon="1.45218">
        <ele>345.25</ele>
        <time>2018-09-17T13:42:59Z</time>
      </trkpt>
      <trkpt lat="44.69192" lon="1.45233">
        <ele>344.29</ele>
        <time>2018-09-17T13:43:10Z</time>
      </trkpt>
      <trkpt lat="44.69195" lon="1.45249">
        <ele>342.85</ele>
        <time>2018-09-17T13:43:21Z</time>
      </trkpt>
      <trkpt lat="44.69197" lon="1.45263">
        <ele>342.37</ele>
        <time>2018-09-17T13:43:30Z</time>
      </trkpt>
      <trkpt lat="44.69198" lon="1.45275">
        <ele>342.85</ele>
        <time>2018-09-17T13:43:39Z</time>
      </trkpt>
      <trkpt lat="44.69201" lon="1.45287">
        <ele>342.37</ele>
        <time>2018-09-17T13:43:48Z</time>
      </trkpt>
      <trkpt lat="44.69207" lon="1.45299">
        <ele>342.37</ele>
        <time>2018-09-17T13:43:57Z</time>
      </trkpt>
      <trkpt lat="44.69213" lon="1.45309">
        <ele>341.89</ele>
        <time>2018-09-17T13:44:05Z</time>
      </trkpt>
      <trkpt lat="44.69221" lon="1.45319">
        <ele>341.41</ele>
        <time>2018-09-17T13:44:14Z</time>
      </trkpt>
      <trkpt lat="44.69229" lon="1.45326">
        <ele>341.41</ele>
        <time>2018-09-17T13:44:23Z</time>
      </trkpt>
      <trkpt lat="44.69235" lon="1.45336">
        <ele>340.92</ele>
        <time>2018-09-17T13:44:31Z</time>
      </trkpt>
      <trkpt lat="44.69231" lon="1.45349">
        <ele>340.92</ele>
        <time>2018-09-17T13:44:39Z</time>
      </trkpt>
      <trkpt lat="44.69228" lon="1.45361">
        <ele>341.89</ele>
        <time>2018-09-17T13:44:48Z</time>
      </trkpt>
      <trkpt lat="44.69222" lon="1.45376">
        <ele>342.37</ele>
        <time>2018-09-17T13:44:59Z</time>
      </trkpt>
      <trkpt lat="44.69216" lon="1.45389">
        <ele>342.85</ele>
        <time>2018-09-17T13:45:09Z</time>
      </trkpt>
      <trkpt lat="44.69211" lon="1.45401">
        <ele>343.33</ele>
        <time>2018-09-17T13:45:18Z</time>
      </trkpt>
      <trkpt lat="44.69205" lon="1.45411">
        <ele>343.33</ele>
        <time>2018-09-17T13:45:26Z</time>
      </trkpt>
      <trkpt lat="44.69199" lon="1.45426">
        <ele>343.81</ele>
        <time>2018-09-17T13:45:37Z</time>
      </trkpt>
      <trkpt lat="44.69193" lon="1.45443">
        <ele>343.81</ele>
        <time>2018-09-17T13:45:47Z</time>
      </trkpt>
      <trkpt lat="44.69187" lon="1.45456">
        <ele>343.81</ele>
        <time>2018-09-17T13:45:57Z</time>
      </trkpt>
      <trkpt lat="44.69181" lon="1.4547">
        <ele>343.81</ele>
        <time>2018-09-17T13:46:08Z</time>
      </trkpt>
      <trkpt lat="44.69167" lon="1.45501">
        <ele>342.37</ele>
        <time>2018-09-17T13:46:34Z</time>
      </trkpt>
      <trkpt lat="44.69157" lon="1.45516">
        <ele>341.89</ele>
        <time>2018-09-17T13:46:45Z</time>
      </trkpt>
      <trkpt lat="44.69129" lon="1.45541">
        <ele>339.96</ele>
        <time>2018-09-17T13:47:10Z</time>
      </trkpt>
      <trkpt lat="44.69125" lon="1.45576">
        <ele>335.16</ele>
        <time>2018-09-17T13:47:46Z</time>
      </trkpt>
      <trkpt lat="44.69135" lon="1.4562">
        <ele>329.87</ele>
        <time>2018-09-17T13:48:17Z</time>
      </trkpt>
      <trkpt lat="44.69149" lon="1.45645">
        <ele>326.99</ele>
        <time>2018-09-17T13:48:41Z</time>
      </trkpt>
      <trkpt lat="44.69158" lon="1.45691">
        <ele>323.14</ele>
        <time>2018-09-17T13:49:15Z</time>
      </trkpt>
      <trkpt lat="44.69154" lon="1.45766">
        <ele>315.93</ele>
        <time>2018-09-17T13:50:07Z</time>
      </trkpt>
      <trkpt lat="44.69149" lon="1.45837">
        <ele>309.2</ele>
        <time>2018-09-17T13:50:59Z</time>
      </trkpt>
      <trkpt lat="44.69134" lon="1.45936">
        <ele>301.03</ele>
        <time>2018-09-17T13:52:13Z</time>
      </trkpt>
      <trkpt lat="44.69155" lon="1.46014">
        <ele>303.91</ele>
        <time>2018-09-17T13:57:30Z</time>
      </trkpt>
      <trkpt lat="44.69159" lon="1.45991">
        <ele>304.88</ele>
        <time>2018-09-17T14:08:15Z</time>
      </trkpt>
      <trkpt lat="44.69188" lon="1.46015">
        <ele>308.24</ele>
        <time>2018-09-17T14:08:55Z</time>
      </trkpt>
      <trkpt lat="44.69186" lon="1.46034">
        <ele>310.16</ele>
        <time>2018-09-17T14:09:12Z</time>
      </trkpt>
      <trkpt lat="44.69177" lon="1.46047">
        <ele>311.6</ele>
        <time>2018-09-17T14:09:24Z</time>
      </trkpt>
      <trkpt lat="44.69168" lon="1.46058">
        <ele>313.05</ele>
        <time>2018-09-17T14:09:35Z</time>
      </trkpt>
      <trkpt lat="44.69159" lon="1.4607">
        <ele>314.49</ele>
        <time>2018-09-17T14:09:47Z</time>
      </trkpt>
      <trkpt lat="44.69148" lon="1.46083">
        <ele>315.45</ele>
        <time>2018-09-17T14:10:00Z</time>
      </trkpt>
      <trkpt lat="44.69138" lon="1.46093">
        <ele>316.41</ele>
        <time>2018-09-17T14:10:12Z</time>
      </trkpt>
      <trkpt lat="44.69156" lon="1.46086">
        <ele>318.81</ele>
        <time>2018-09-17T14:10:51Z</time>
      </trkpt>
      <trkpt lat="44.69171" lon="1.46087">
        <ele>319.78</ele>
        <time>2018-09-17T14:11:06Z</time>
      </trkpt>
      <trkpt lat="44.69179" lon="1.46095">
        <ele>320.26</ele>
        <time>2018-09-17T14:11:16Z</time>
      </trkpt>
      <trkpt lat="44.69188" lon="1.46103">
        <ele>321.22</ele>
        <time>2018-09-17T14:11:26Z</time>
      </trkpt>
      <trkpt lat="44.6918" lon="1.46112">
        <ele>321.7</ele>
        <time>2018-09-17T14:11:39Z</time>
      </trkpt>
      <trkpt lat="44.69167" lon="1.4612">
        <ele>323.14</ele>
        <time>2018-09-17T14:11:59Z</time>
      </trkpt>
      <trkpt lat="44.69157" lon="1.46129">
        <ele>323.14</ele>
        <time>2018-09-17T14:12:10Z</time>
      </trkpt>
      <trkpt lat="44.69148" lon="1.46141">
        <ele>323.62</ele>
        <time>2018-09-17T14:12:20Z</time>
      </trkpt>
      <trkpt lat="44.69139" lon="1.46156">
        <ele>324.1</ele>
        <time>2018-09-17T14:12:31Z</time>
      </trkpt>
      <trkpt lat="44.69129" lon="1.46167">
        <ele>324.1</ele>
        <time>2018-09-17T14:12:41Z</time>
      </trkpt>
      <trkpt lat="44.69118" lon="1.46181">
        <ele>324.58</ele>
        <time>2018-09-17T14:12:52Z</time>
      </trkpt>
      <trkpt lat="44.69107" lon="1.46193">
        <ele>325.54</ele>
        <time>2018-09-17T14:13:04Z</time>
      </trkpt>
      <trkpt lat="44.69097" lon="1.46205">
        <ele>326.02</ele>
        <time>2018-09-17T14:13:17Z</time>
      </trkpt>
      <trkpt lat="44.69087" lon="1.46216">
        <ele>326.5</ele>
        <time>2018-09-17T14:13:29Z</time>
      </trkpt>
      <trkpt lat="44.69075" lon="1.4623">
        <ele>326.99</ele>
        <time>2018-09-17T14:13:40Z</time>
      </trkpt>
      <trkpt lat="44.69065" lon="1.46242">
        <ele>327.47</ele>
        <time>2018-09-17T14:13:51Z</time>
      </trkpt>
      <trkpt lat="44.69058" lon="1.46252">
        <ele>327.47</ele>
        <time>2018-09-17T14:14:02Z</time>
      </trkpt>
      <trkpt lat="44.69049" lon="1.46261">
        <ele>327.47</ele>
        <time>2018-09-17T14:14:23Z</time>
      </trkpt>
      <trkpt lat="44.69044" lon="1.46276">
        <ele>327.47</ele>
        <time>2018-09-17T14:14:34Z</time>
      </trkpt>
      <trkpt lat="44.69039" lon="1.46292">
        <ele>327.47</ele>
        <time>2018-09-17T14:14:44Z</time>
      </trkpt>
      <trkpt lat="44.69035" lon="1.46308">
        <ele>327.47</ele>
        <time>2018-09-17T14:14:53Z</time>
      </trkpt>
      <trkpt lat="44.69031" lon="1.46321">
        <ele>326.5</ele>
        <time>2018-09-17T14:15:02Z</time>
      </trkpt>
      <trkpt lat="44.69029" lon="1.46337">
        <ele>326.02</ele>
        <time>2018-09-17T14:15:11Z</time>
      </trkpt>
      <trkpt lat="44.6903" lon="1.46353">
        <ele>326.02</ele>
        <time>2018-09-17T14:15:20Z</time>
      </trkpt>
      <trkpt lat="44.69037" lon="1.46366">
        <ele>326.02</ele>
        <time>2018-09-17T14:15:30Z</time>
      </trkpt>
      <trkpt lat="44.69043" lon="1.46375">
        <ele>326.02</ele>
        <time>2018-09-17T14:15:40Z</time>
      </trkpt>
      <trkpt lat="44.6905" lon="1.46386">
        <ele>326.02</ele>
        <time>2018-09-17T14:15:49Z</time>
      </trkpt>
      <trkpt lat="44.69058" lon="1.46395">
        <ele>326.02</ele>
        <time>2018-09-17T14:15:58Z</time>
      </trkpt>
      <trkpt lat="44.69065" lon="1.46406">
        <ele>326.02</ele>
        <time>2018-09-17T14:16:07Z</time>
      </trkpt>
      <trkpt lat="44.69072" lon="1.46416">
        <ele>326.02</ele>
        <time>2018-09-17T14:16:16Z</time>
      </trkpt>
      <trkpt lat="44.69077" lon="1.46428">
        <ele>326.99</ele>
        <time>2018-09-17T14:16:25Z</time>
      </trkpt>
      <trkpt lat="44.69083" lon="1.46439">
        <ele>327.47</ele>
        <time>2018-09-17T14:16:34Z</time>
      </trkpt>
      <trkpt lat="44.69089" lon="1.4645">
        <ele>327.95</ele>
        <time>2018-09-17T14:16:44Z</time>
      </trkpt>
      <trkpt lat="44.69093" lon="1.46463">
        <ele>328.43</ele>
        <time>2018-09-17T14:16:54Z</time>
      </trkpt>
      <trkpt lat="44.69099" lon="1.46474">
        <ele>329.39</ele>
        <time>2018-09-17T14:17:04Z</time>
      </trkpt>
      <trkpt lat="44.69108" lon="1.46494">
        <ele>330.83</ele>
        <time>2018-09-17T14:17:20Z</time>
      </trkpt>
      <trkpt lat="44.69113" lon="1.46509">
        <ele>331.31</ele>
        <time>2018-09-17T14:17:30Z</time>
      </trkpt>
      <trkpt lat="44.69128" lon="1.46541">
        <ele>333.71</ele>
        <time>2018-09-17T14:17:53Z</time>
      </trkpt>
      <trkpt lat="44.69136" lon="1.46567">
        <ele>336.12</ele>
        <time>2018-09-17T14:18:12Z</time>
      </trkpt>
      <trkpt lat="44.69146" lon="1.46596">
        <ele>337.08</ele>
        <time>2018-09-17T14:18:33Z</time>
      </trkpt>
      <trkpt lat="44.69152" lon="1.46608">
        <ele>337.56</ele>
        <time>2018-09-17T14:18:42Z</time>
      </trkpt>
      <trkpt lat="44.69156" lon="1.46621">
        <ele>338.52</ele>
        <time>2018-09-17T14:18:51Z</time>
      </trkpt>
      <trkpt lat="44.69159" lon="1.46639">
        <ele>339</ele>
        <time>2018-09-17T14:19:03Z</time>
      </trkpt>
      <trkpt lat="44.69165" lon="1.46654">
        <ele>339.48</ele>
        <time>2018-09-17T14:19:14Z</time>
      </trkpt>
      <trkpt lat="44.69173" lon="1.46662">
        <ele>339.96</ele>
        <time>2018-09-17T14:19:24Z</time>
      </trkpt>
      <trkpt lat="44.69182" lon="1.46667">
        <ele>339.96</ele>
        <time>2018-09-17T14:19:34Z</time>
      </trkpt>
      <trkpt lat="44.69192" lon="1.46672">
        <ele>339.96</ele>
        <time>2018-09-17T14:19:43Z</time>
      </trkpt>
      <trkpt lat="44.69203" lon="1.46674">
        <ele>339.96</ele>
        <time>2018-09-17T14:19:52Z</time>
      </trkpt>
      <trkpt lat="44.69213" lon="1.46678">
        <ele>340.44</ele>
        <time>2018-09-17T14:20:34Z</time>
      </trkpt>
      <trkpt lat="44.69205" lon="1.46678">
        <ele>340.44</ele>
        <time>2018-09-17T14:21:33Z</time>
      </trkpt>
      <trkpt lat="44.69198" lon="1.46675">
        <ele>340.44</ele>
        <time>2018-09-17T14:21:45Z</time>
      </trkpt>
      <trkpt lat="44.6921" lon="1.46679">
        <ele>340.44</ele>
        <time>2018-09-17T14:22:06Z</time>
      </trkpt>
      <trkpt lat="44.69219" lon="1.46681">
        <ele>340.44</ele>
        <time>2018-09-17T14:22:13Z</time>
      </trkpt>
      <trkpt lat="44.69231" lon="1.46685">
        <ele>340.44</ele>
        <time>2018-09-17T14:22:21Z</time>
      </trkpt>
      <trkpt lat="44.69243" lon="1.46687">
        <ele>340.44</ele>
        <time>2018-09-17T14:22:29Z</time>
      </trkpt>
      <trkpt lat="44.69254" lon="1.46687">
        <ele>340.44</ele>
        <time>2018-09-17T14:22:37Z</time>
      </trkpt>
      <trkpt lat="44.69264" lon="1.46688">
        <ele>340.44</ele>
        <time>2018-09-17T14:22:44Z</time>
      </trkpt>
      <trkpt lat="44.69275" lon="1.46688">
        <ele>340.44</ele>
        <time>2018-09-17T14:22:51Z</time>
      </trkpt>
      <trkpt lat="44.69284" lon="1.46686">
        <ele>340.44</ele>
        <time>2018-09-17T14:22:58Z</time>
      </trkpt>
      <trkpt lat="44.69295" lon="1.46684">
        <ele>340.44</ele>
        <time>2018-09-17T14:23:06Z</time>
      </trkpt>
      <trkpt lat="44.69303" lon="1.4668">
        <ele>340.44</ele>
        <time>2018-09-17T14:23:13Z</time>
      </trkpt>
      <trkpt lat="44.69304" lon="1.46679">
        <ele>340.44</ele>
        <time>2018-09-17T14:24:48Z</time>
      </trkpt>
      <trkpt lat="44.69295" lon="1.46684">
        <ele>340.44</ele>
        <time>2018-09-17T14:24:55Z</time>
      </trkpt>
      <trkpt lat="44.69286" lon="1.46686">
        <ele>340.44</ele>
        <time>2018-09-17T14:25:02Z</time>
      </trkpt>
      <trkpt lat="44.69277" lon="1.46688">
        <ele>340.44</ele>
        <time>2018-09-17T14:25:09Z</time>
      </trkpt>
      <trkpt lat="44.69267" lon="1.46688">
        <ele>340.44</ele>
        <time>2018-09-17T14:25:16Z</time>
      </trkpt>
      <trkpt lat="44.69258" lon="1.46686">
        <ele>340.44</ele>
        <time>2018-09-17T14:25:23Z</time>
      </trkpt>
      <trkpt lat="44.69248" lon="1.46686">
        <ele>340.44</ele>
        <time>2018-09-17T14:25:30Z</time>
      </trkpt>
      <trkpt lat="44.69239" lon="1.46684">
        <ele>340.44</ele>
        <time>2018-09-17T14:25:37Z</time>
      </trkpt>
      <trkpt lat="44.69228" lon="1.46683">
        <ele>339.48</ele>
        <time>2018-09-17T14:25:44Z</time>
      </trkpt>
      <trkpt lat="44.69219" lon="1.46681">
        <ele>339.48</ele>
        <time>2018-09-17T14:25:52Z</time>
      </trkpt>
      <trkpt lat="44.69209" lon="1.46679">
        <ele>340.44</ele>
        <time>2018-09-17T14:26:01Z</time>
      </trkpt>
      <trkpt lat="44.69199" lon="1.46675">
        <ele>340.44</ele>
        <time>2018-09-17T14:26:09Z</time>
      </trkpt>
      <trkpt lat="44.69189" lon="1.4667">
        <ele>340.44</ele>
        <time>2018-09-17T14:26:17Z</time>
      </trkpt>
      <trkpt lat="44.69179" lon="1.46667">
        <ele>340.92</ele>
        <time>2018-09-17T14:26:25Z</time>
      </trkpt>
      <trkpt lat="44.69169" lon="1.46662">
        <ele>340.92</ele>
        <time>2018-09-17T14:26:34Z</time>
      </trkpt>
      <trkpt lat="44.69159" lon="1.46662">
        <ele>340.92</ele>
        <time>2018-09-17T14:26:45Z</time>
      </trkpt>
      <trkpt lat="44.69146" lon="1.46673">
        <ele>338.52</ele>
        <time>2018-09-17T14:26:57Z</time>
      </trkpt>
      <trkpt lat="44.69136" lon="1.46681">
        <ele>338.52</ele>
        <time>2018-09-17T14:27:07Z</time>
      </trkpt>
      <trkpt lat="44.69126" lon="1.46688">
        <ele>338.04</ele>
        <time>2018-09-17T14:27:17Z</time>
      </trkpt>
      <trkpt lat="44.69119" lon="1.46697">
        <ele>336.6</ele>
        <time>2018-09-17T14:27:28Z</time>
      </trkpt>
      <trkpt lat="44.69116" lon="1.4671">
        <ele>335.64</ele>
        <time>2018-09-17T14:27:40Z</time>
      </trkpt>
      <trkpt lat="44.69116" lon="1.46724">
        <ele>334.68</ele>
        <time>2018-09-17T14:27:53Z</time>
      </trkpt>
      <trkpt lat="44.69117" lon="1.46737">
        <ele>333.71</ele>
        <time>2018-09-17T14:28:06Z</time>
      </trkpt>
      <trkpt lat="44.69118" lon="1.4675">
        <ele>332.27</ele>
        <time>2018-09-17T14:28:18Z</time>
      </trkpt>
      <trkpt lat="44.69123" lon="1.46761">
        <ele>331.79</ele>
        <time>2018-09-17T14:28:27Z</time>
      </trkpt>
      <trkpt lat="44.69128" lon="1.46774">
        <ele>331.79</ele>
        <time>2018-09-17T14:28:35Z</time>
      </trkpt>
      <trkpt lat="44.69139" lon="1.4679">
        <ele>331.31</ele>
        <time>2018-09-17T14:29:01Z</time>
      </trkpt>
      <trkpt lat="44.69145" lon="1.46803">
        <ele>331.31</ele>
        <time>2018-09-17T14:29:11Z</time>
      </trkpt>
      <trkpt lat="44.69149" lon="1.46817">
        <ele>331.31</ele>
        <time>2018-09-17T14:29:21Z</time>
      </trkpt>
      <trkpt lat="44.69157" lon="1.46829">
        <ele>331.31</ele>
        <time>2018-09-17T14:29:33Z</time>
      </trkpt>
      <trkpt lat="44.69166" lon="1.46832">
        <ele>330.83</ele>
        <time>2018-09-17T14:29:44Z</time>
      </trkpt>
      <trkpt lat="44.69172" lon="1.46844">
        <ele>329.87</ele>
        <time>2018-09-17T14:30:01Z</time>
      </trkpt>
      <trkpt lat="44.69163" lon="1.46853">
        <ele>329.87</ele>
        <time>2018-09-17T14:30:20Z</time>
      </trkpt>
      <trkpt lat="44.69153" lon="1.4686">
        <ele>329.87</ele>
        <time>2018-09-17T14:30:27Z</time>
      </trkpt>
      <trkpt lat="44.69146" lon="1.4687">
        <ele>329.39</ele>
        <time>2018-09-17T14:30:35Z</time>
      </trkpt>
      <trkpt lat="44.69139" lon="1.46879">
        <ele>328.91</ele>
        <time>2018-09-17T14:30:42Z</time>
      </trkpt>
      <trkpt lat="44.69135" lon="1.46893">
        <ele>327.95</ele>
        <time>2018-09-17T14:30:50Z</time>
      </trkpt>
      <trkpt lat="44.69132" lon="1.46905">
        <ele>326.99</ele>
        <time>2018-09-17T14:30:58Z</time>
      </trkpt>
      <trkpt lat="44.6913" lon="1.46918">
        <ele>326.5</ele>
        <time>2018-09-17T14:31:06Z</time>
      </trkpt>
      <trkpt lat="44.69128" lon="1.4693">
        <ele>325.54</ele>
        <time>2018-09-17T14:31:14Z</time>
      </trkpt>
      <trkpt lat="44.69127" lon="1.46942">
        <ele>325.06</ele>
        <time>2018-09-17T14:31:22Z</time>
      </trkpt>
      <trkpt lat="44.69127" lon="1.46955">
        <ele>324.58</ele>
        <time>2018-09-17T14:31:30Z</time>
      </trkpt>
      <trkpt lat="44.69126" lon="1.46967">
        <ele>324.1</ele>
        <time>2018-09-17T14:31:38Z</time>
      </trkpt>
      <trkpt lat="44.69122" lon="1.46981">
        <ele>324.1</ele>
        <time>2018-09-17T14:31:46Z</time>
      </trkpt>
      <trkpt lat="44.69116" lon="1.46993">
        <ele>324.1</ele>
        <time>2018-09-17T14:31:54Z</time>
      </trkpt>
      <trkpt lat="44.6911" lon="1.47005">
        <ele>323.62</ele>
        <time>2018-09-17T14:32:02Z</time>
      </trkpt>
      <trkpt lat="44.69104" lon="1.47016">
        <ele>323.62</ele>
        <time>2018-09-17T14:32:10Z</time>
      </trkpt>
      <trkpt lat="44.69099" lon="1.47027">
        <ele>323.62</ele>
        <time>2018-09-17T14:32:17Z</time>
      </trkpt>
      <trkpt lat="44.69091" lon="1.47035">
        <ele>323.62</ele>
        <time>2018-09-17T14:32:24Z</time>
      </trkpt>
      <trkpt lat="44.69083" lon="1.47042">
        <ele>323.62</ele>
        <time>2018-09-17T14:32:32Z</time>
      </trkpt>
      <trkpt lat="44.69075" lon="1.47051">
        <ele>323.62</ele>
        <time>2018-09-17T14:32:39Z</time>
      </trkpt>
      <trkpt lat="44.69066" lon="1.47059">
        <ele>323.62</ele>
        <time>2018-09-17T14:32:47Z</time>
      </trkpt>
      <trkpt lat="44.69059" lon="1.47068">
        <ele>325.06</ele>
        <time>2018-09-17T14:32:55Z</time>
      </trkpt>
      <trkpt lat="44.69054" lon="1.47079">
        <ele>325.54</ele>
        <time>2018-09-17T14:33:03Z</time>
      </trkpt>
      <trkpt lat="44.69047" lon="1.47089">
        <ele>325.54</ele>
        <time>2018-09-17T14:33:12Z</time>
      </trkpt>
      <trkpt lat="44.69039" lon="1.47098">
        <ele>326.02</ele>
        <time>2018-09-17T14:33:24Z</time>
      </trkpt>
      <trkpt lat="44.69031" lon="1.47105">
        <ele>326.5</ele>
        <time>2018-09-17T14:33:32Z</time>
      </trkpt>
      <trkpt lat="44.69021" lon="1.47109">
        <ele>326.5</ele>
        <time>2018-09-17T14:33:40Z</time>
      </trkpt>
      <trkpt lat="44.69011" lon="1.47117">
        <ele>326.99</ele>
        <time>2018-09-17T14:33:49Z</time>
      </trkpt>
      <trkpt lat="44.69002" lon="1.47123">
        <ele>327.47</ele>
        <time>2018-09-17T14:33:57Z</time>
      </trkpt>
      <trkpt lat="44.68991" lon="1.47128">
        <ele>327.95</ele>
        <time>2018-09-17T14:34:05Z</time>
      </trkpt>
      <trkpt lat="44.68981" lon="1.47126">
        <ele>327.95</ele>
        <time>2018-09-17T14:34:13Z</time>
      </trkpt>
      <trkpt lat="44.68972" lon="1.47122">
        <ele>328.43</ele>
        <time>2018-09-17T14:34:45Z</time>
      </trkpt>
      <trkpt lat="44.68961" lon="1.47119">
        <ele>327.47</ele>
        <time>2018-09-17T14:34:54Z</time>
      </trkpt>
      <trkpt lat="44.68953" lon="1.47111">
        <ele>327.47</ele>
        <time>2018-09-17T14:35:02Z</time>
      </trkpt>
      <trkpt lat="44.68942" lon="1.47106">
        <ele>326.5</ele>
        <time>2018-09-17T14:35:11Z</time>
      </trkpt>
      <trkpt lat="44.68932" lon="1.471">
        <ele>325.54</ele>
        <time>2018-09-17T14:35:19Z</time>
      </trkpt>
      <trkpt lat="44.68922" lon="1.47092">
        <ele>324.58</ele>
        <time>2018-09-17T14:35:28Z</time>
      </trkpt>
      <trkpt lat="44.68912" lon="1.47083">
        <ele>323.14</ele>
        <time>2018-09-17T14:35:39Z</time>
      </trkpt>
      <trkpt lat="44.689" lon="1.47073">
        <ele>322.18</ele>
        <time>2018-09-17T14:35:49Z</time>
      </trkpt>
      <trkpt lat="44.68895" lon="1.47083">
        <ele>321.22</ele>
        <time>2018-09-17T14:36:03Z</time>
      </trkpt>
      <trkpt lat="44.68899" lon="1.47102">
        <ele>319.78</ele>
        <time>2018-09-17T14:36:25Z</time>
      </trkpt>
      <trkpt lat="44.68899" lon="1.47117">
        <ele>318.81</ele>
        <time>2018-09-17T14:36:36Z</time>
      </trkpt>
      <trkpt lat="44.68896" lon="1.47133">
        <ele>317.85</ele>
        <time>2018-09-17T14:36:45Z</time>
      </trkpt>
      <trkpt lat="44.68896" lon="1.47151">
        <ele>316.89</ele>
        <time>2018-09-17T14:36:55Z</time>
      </trkpt>
      <trkpt lat="44.68897" lon="1.47166">
        <ele>316.41</ele>
        <time>2018-09-17T14:37:03Z</time>
      </trkpt>
      <trkpt lat="44.68898" lon="1.47182">
        <ele>315.45</ele>
        <time>2018-09-17T14:37:12Z</time>
      </trkpt>
      <trkpt lat="44.68899" lon="1.47198">
        <ele>314.01</ele>
        <time>2018-09-17T14:37:22Z</time>
      </trkpt>
      <trkpt lat="44.68899" lon="1.47215">
        <ele>313.05</ele>
        <time>2018-09-17T14:37:32Z</time>
      </trkpt>
      <trkpt lat="44.689" lon="1.47231">
        <ele>312.57</ele>
        <time>2018-09-17T14:37:41Z</time>
      </trkpt>
      <trkpt lat="44.68901" lon="1.47249">
        <ele>311.6</ele>
        <time>2018-09-17T14:37:50Z</time>
      </trkpt>
      <trkpt lat="44.68906" lon="1.47264">
        <ele>310.16</ele>
        <time>2018-09-17T14:37:59Z</time>
      </trkpt>
      <trkpt lat="44.68913" lon="1.47276">
        <ele>309.2</ele>
        <time>2018-09-17T14:38:08Z</time>
      </trkpt>
      <trkpt lat="44.68923" lon="1.47286">
        <ele>307.76</ele>
        <time>2018-09-17T14:38:20Z</time>
      </trkpt>
      <trkpt lat="44.68935" lon="1.47295">
        <ele>306.8</ele>
        <time>2018-09-17T14:38:30Z</time>
      </trkpt>
      <trkpt lat="44.68946" lon="1.47303">
        <ele>305.36</ele>
        <time>2018-09-17T14:38:40Z</time>
      </trkpt>
      <trkpt lat="44.68957" lon="1.47311">
        <ele>304.39</ele>
        <time>2018-09-17T14:38:50Z</time>
      </trkpt>
      <trkpt lat="44.68968" lon="1.47319">
        <ele>302.95</ele>
        <time>2018-09-17T14:38:59Z</time>
      </trkpt>
      <trkpt lat="44.68977" lon="1.47325">
        <ele>301.99</ele>
        <time>2018-09-17T14:39:08Z</time>
      </trkpt>
      <trkpt lat="44.68988" lon="1.47332">
        <ele>301.51</ele>
        <time>2018-09-17T14:39:18Z</time>
      </trkpt>
      <trkpt lat="44.68999" lon="1.47339">
        <ele>300.07</ele>
        <time>2018-09-17T14:39:28Z</time>
      </trkpt>
      <trkpt lat="44.69011" lon="1.47345">
        <ele>299.11</ele>
        <time>2018-09-17T14:39:38Z</time>
      </trkpt>
      <trkpt lat="44.69022" lon="1.47351">
        <ele>298.15</ele>
        <time>2018-09-17T14:39:47Z</time>
      </trkpt>
      <trkpt lat="44.69034" lon="1.47356">
        <ele>297.18</ele>
        <time>2018-09-17T14:39:56Z</time>
      </trkpt>
      <trkpt lat="44.69044" lon="1.47361">
        <ele>296.7</ele>
        <time>2018-09-17T14:40:05Z</time>
      </trkpt>
      <trkpt lat="44.69055" lon="1.47363">
        <ele>295.74</ele>
        <time>2018-09-17T14:40:16Z</time>
      </trkpt>
      <trkpt lat="44.69062" lon="1.47374">
        <ele>294.3</ele>
        <time>2018-09-17T14:40:25Z</time>
      </trkpt>
      <trkpt lat="44.69056" lon="1.4738">
        <ele>292.38</ele>
        <time>2018-09-17T14:40:35Z</time>
      </trkpt>
      <trkpt lat="44.69046" lon="1.47379">
        <ele>291.42</ele>
        <time>2018-09-17T14:40:45Z</time>
      </trkpt>
      <trkpt lat="44.69035" lon="1.47377">
        <ele>290.94</ele>
        <time>2018-09-17T14:40:56Z</time>
      </trkpt>
      <trkpt lat="44.69023" lon="1.47374">
        <ele>289.97</ele>
        <time>2018-09-17T14:41:07Z</time>
      </trkpt>
      <trkpt lat="44.69012" lon="1.47371">
        <ele>289.01</ele>
        <time>2018-09-17T14:41:17Z</time>
      </trkpt>
      <trkpt lat="44.69001" lon="1.47367">
        <ele>288.53</ele>
        <time>2018-09-17T14:41:25Z</time>
      </trkpt>
      <trkpt lat="44.6899" lon="1.47366">
        <ele>287.57</ele>
        <time>2018-09-17T14:41:34Z</time>
      </trkpt>
      <trkpt lat="44.68979" lon="1.47364">
        <ele>286.61</ele>
        <time>2018-09-17T14:41:42Z</time>
      </trkpt>
      <trkpt lat="44.68968" lon="1.47363">
        <ele>286.13</ele>
        <time>2018-09-17T14:41:50Z</time>
      </trkpt>
      <trkpt lat="44.68958" lon="1.47362">
        <ele>285.65</ele>
        <time>2018-09-17T14:41:58Z</time>
      </trkpt>
      <trkpt lat="44.68948" lon="1.47361">
        <ele>285.17</ele>
        <time>2018-09-17T14:42:06Z</time>
      </trkpt>
      <trkpt lat="44.68938" lon="1.47359">
        <ele>284.69</ele>
        <time>2018-09-17T14:42:15Z</time>
      </trkpt>
      <trkpt lat="44.68928" lon="1.47363">
        <ele>284.21</ele>
        <time>2018-09-17T14:42:24Z</time>
      </trkpt>
      <trkpt lat="44.68927" lon="1.4738">
        <ele>283.73</ele>
        <time>2018-09-17T14:42:37Z</time>
      </trkpt>
      <trkpt lat="44.68935" lon="1.47387">
        <ele>283.25</ele>
        <time>2018-09-17T14:42:46Z</time>
      </trkpt>
      <trkpt lat="44.68945" lon="1.47392">
        <ele>282.77</ele>
        <time>2018-09-17T14:42:55Z</time>
      </trkpt>
      <trkpt lat="44.68954" lon="1.47398">
        <ele>281.8</ele>
        <time>2018-09-17T14:43:03Z</time>
      </trkpt>
      <trkpt lat="44.68963" lon="1.47407">
        <ele>281.32</ele>
        <time>2018-09-17T14:43:11Z</time>
      </trkpt>
      <trkpt lat="44.68972" lon="1.47416">
        <ele>280.36</ele>
        <time>2018-09-17T14:43:20Z</time>
      </trkpt>
      <trkpt lat="44.68981" lon="1.47427">
        <ele>279.88</ele>
        <time>2018-09-17T14:43:30Z</time>
      </trkpt>
      <trkpt lat="44.68989" lon="1.47435">
        <ele>278.44</ele>
        <time>2018-09-17T14:43:38Z</time>
      </trkpt>
      <trkpt lat="44.68998" lon="1.47445">
        <ele>277.48</ele>
        <time>2018-09-17T14:43:46Z</time>
      </trkpt>
      <trkpt lat="44.69008" lon="1.47456">
        <ele>276.52</ele>
        <time>2018-09-17T14:43:56Z</time>
      </trkpt>
      <trkpt lat="44.69017" lon="1.47466">
        <ele>275.56</ele>
        <time>2018-09-17T14:44:04Z</time>
      </trkpt>
      <trkpt lat="44.69026" lon="1.47476">
        <ele>275.07</ele>
        <time>2018-09-17T14:44:12Z</time>
      </trkpt>
      <trkpt lat="44.69032" lon="1.4749">
        <ele>274.59</ele>
        <time>2018-09-17T14:44:21Z</time>
      </trkpt>
      <trkpt lat="44.69041" lon="1.47493">
        <ele>274.11</ele>
        <time>2018-09-17T14:44:33Z</time>
      </trkpt>
      <trkpt lat="44.69047" lon="1.47482">
        <ele>272.19</ele>
        <time>2018-09-17T14:44:41Z</time>
      </trkpt>
      <trkpt lat="44.69056" lon="1.47479">
        <ele>271.23</ele>
        <time>2018-09-17T14:44:51Z</time>
      </trkpt>
      <trkpt lat="44.69065" lon="1.47477">
        <ele>270.27</ele>
        <time>2018-09-17T14:44:59Z</time>
      </trkpt>
      <trkpt lat="44.69075" lon="1.47478">
        <ele>268.83</ele>
        <time>2018-09-17T14:45:07Z</time>
      </trkpt>
      <trkpt lat="44.69085" lon="1.4748">
        <ele>268.35</ele>
        <time>2018-09-17T14:45:15Z</time>
      </trkpt>
      <trkpt lat="44.69093" lon="1.4749">
        <ele>267.38</ele>
        <time>2018-09-17T14:45:23Z</time>
      </trkpt>
      <trkpt lat="44.69102" lon="1.47501">
        <ele>266.9</ele>
        <time>2018-09-17T14:45:32Z</time>
      </trkpt>
      <trkpt lat="44.69108" lon="1.47516">
        <ele>266.42</ele>
        <time>2018-09-17T14:45:41Z</time>
      </trkpt>
      <trkpt lat="44.69117" lon="1.47527">
        <ele>266.42</ele>
        <time>2018-09-17T14:45:50Z</time>
      </trkpt>
      <trkpt lat="44.69129" lon="1.47553">
        <ele>270.27</ele>
        <time>2018-09-17T14:46:58Z</time>
      </trkpt>
      <trkpt lat="44.69119" lon="1.47574">
        <ele>269.79</ele>
        <time>2018-09-17T14:48:30Z</time>
      </trkpt>
      <trkpt lat="44.69109" lon="1.47585">
        <ele>269.79</ele>
        <time>2018-09-17T14:48:45Z</time>
      </trkpt>
      <trkpt lat="44.691" lon="1.47593">
        <ele>269.79</ele>
        <time>2018-09-17T14:48:57Z</time>
      </trkpt>
      <trkpt lat="44.69091" lon="1.47601">
        <ele>269.79</ele>
        <time>2018-09-17T14:49:06Z</time>
      </trkpt>
      <trkpt lat="44.69079" lon="1.4761">
        <ele>269.79</ele>
        <time>2018-09-17T14:49:16Z</time>
      </trkpt>
      <trkpt lat="44.69068" lon="1.47617">
        <ele>269.79</ele>
        <time>2018-09-17T14:49:26Z</time>
      </trkpt>
      <trkpt lat="44.69057" lon="1.47623">
        <ele>269.31</ele>
        <time>2018-09-17T14:49:35Z</time>
      </trkpt>
      <trkpt lat="44.69047" lon="1.47628">
        <ele>268.35</ele>
        <time>2018-09-17T14:49:44Z</time>
      </trkpt>
      <trkpt lat="44.69037" lon="1.47631">
        <ele>268.35</ele>
        <time>2018-09-17T14:49:52Z</time>
      </trkpt>
      <trkpt lat="44.69027" lon="1.47635">
        <ele>267.86</ele>
        <time>2018-09-17T14:50:01Z</time>
      </trkpt>
      <trkpt lat="44.69017" lon="1.47641">
        <ele>267.38</ele>
        <time>2018-09-17T14:50:10Z</time>
      </trkpt>
      <trkpt lat="44.69007" lon="1.47644">
        <ele>266.9</ele>
        <time>2018-09-17T14:50:19Z</time>
      </trkpt>
      <trkpt lat="44.68996" lon="1.47653">
        <ele>266.42</ele>
        <time>2018-09-17T14:50:29Z</time>
      </trkpt>
      <trkpt lat="44.68986" lon="1.47663">
        <ele>266.42</ele>
        <time>2018-09-17T14:50:39Z</time>
      </trkpt>
      <trkpt lat="44.68976" lon="1.47674">
        <ele>265.94</ele>
        <time>2018-09-17T14:50:49Z</time>
      </trkpt>
      <trkpt lat="44.68968" lon="1.47684">
        <ele>265.94</ele>
        <time>2018-09-17T14:51:00Z</time>
      </trkpt>
      <trkpt lat="44.6896" lon="1.47694">
        <ele>265.46</ele>
        <time>2018-09-17T14:51:11Z</time>
      </trkpt>
      <trkpt lat="44.68952" lon="1.47706">
        <ele>265.46</ele>
        <time>2018-09-17T14:51:24Z</time>
      </trkpt>
      <trkpt lat="44.68946" lon="1.47726">
        <ele>265.46</ele>
        <time>2018-09-17T14:51:40Z</time>
      </trkpt>
      <trkpt lat="44.6894" lon="1.47745">
        <ele>266.42</ele>
        <time>2018-09-17T14:51:57Z</time>
      </trkpt>
      <trkpt lat="44.68928" lon="1.47755">
        <ele>264.98</ele>
        <time>2018-09-17T14:52:12Z</time>
      </trkpt>
      <trkpt lat="44.68917" lon="1.47765">
        <ele>264.02</ele>
        <time>2018-09-17T14:52:23Z</time>
      </trkpt>
      <trkpt lat="44.68903" lon="1.47773">
        <ele>263.54</ele>
        <time>2018-09-17T14:52:33Z</time>
      </trkpt>
      <trkpt lat="44.68892" lon="1.4778">
        <ele>263.06</ele>
        <time>2018-09-17T14:52:42Z</time>
      </trkpt>
      <trkpt lat="44.68881" lon="1.47792">
        <ele>263.06</ele>
        <time>2018-09-17T14:52:52Z</time>
      </trkpt>
      <trkpt lat="44.68873" lon="1.47801">
        <ele>262.58</ele>
        <time>2018-09-17T14:53:02Z</time>
      </trkpt>
      <trkpt lat="44.68865" lon="1.47811">
        <ele>262.1</ele>
        <time>2018-09-17T14:53:14Z</time>
      </trkpt>
      <trkpt lat="44.68857" lon="1.47824">
        <ele>261.62</ele>
        <time>2018-09-17T14:53:24Z</time>
      </trkpt>
      <trkpt lat="44.6885" lon="1.47837">
        <ele>261.62</ele>
        <time>2018-09-17T14:53:33Z</time>
      </trkpt>
      <trkpt lat="44.68844" lon="1.47849">
        <ele>261.14</ele>
        <time>2018-09-17T14:53:43Z</time>
      </trkpt>
      <trkpt lat="44.68837" lon="1.47863">
        <ele>260.65</ele>
        <time>2018-09-17T14:53:53Z</time>
      </trkpt>
      <trkpt lat="44.6883" lon="1.47876">
        <ele>260.17</ele>
        <time>2018-09-17T14:54:03Z</time>
      </trkpt>
      <trkpt lat="44.68822" lon="1.47889">
        <ele>258.73</ele>
        <time>2018-09-17T14:54:13Z</time>
      </trkpt>
      <trkpt lat="44.68814" lon="1.47902">
        <ele>258.25</ele>
        <time>2018-09-17T14:54:23Z</time>
      </trkpt>
      <trkpt lat="44.68806" lon="1.47916">
        <ele>258.25</ele>
        <time>2018-09-17T14:54:33Z</time>
      </trkpt>
      <trkpt lat="44.68798" lon="1.47931">
        <ele>257.77</ele>
        <time>2018-09-17T14:54:43Z</time>
      </trkpt>
      <trkpt lat="44.68791" lon="1.47946">
        <ele>257.77</ele>
        <time>2018-09-17T14:54:52Z</time>
      </trkpt>
      <trkpt lat="44.68783" lon="1.47959">
        <ele>256.81</ele>
        <time>2018-09-17T14:55:00Z</time>
      </trkpt>
      <trkpt lat="44.68773" lon="1.47971">
        <ele>256.81</ele>
        <time>2018-09-17T14:55:09Z</time>
      </trkpt>
      <trkpt lat="44.68763" lon="1.47986">
        <ele>256.33</ele>
        <time>2018-09-17T14:55:18Z</time>
      </trkpt>
      <trkpt lat="44.68751" lon="1.48002">
        <ele>255.37</ele>
        <time>2018-09-17T14:55:28Z</time>
      </trkpt>
      <trkpt lat="44.6874" lon="1.48015">
        <ele>254.89</ele>
        <time>2018-09-17T14:55:39Z</time>
      </trkpt>
      <trkpt lat="44.68728" lon="1.4803">
        <ele>254.41</ele>
        <time>2018-09-17T14:55:49Z</time>
      </trkpt>
      <trkpt lat="44.6872" lon="1.48043">
        <ele>254.41</ele>
        <time>2018-09-17T14:55:58Z</time>
      </trkpt>
      <trkpt lat="44.68712" lon="1.48055">
        <ele>253.93</ele>
        <time>2018-09-17T14:56:08Z</time>
      </trkpt>
      <trkpt lat="44.68702" lon="1.48073">
        <ele>253.44</ele>
        <time>2018-09-17T14:56:22Z</time>
      </trkpt>
      <trkpt lat="44.68693" lon="1.48094">
        <ele>253.44</ele>
        <time>2018-09-17T14:56:36Z</time>
      </trkpt>
      <trkpt lat="44.68682" lon="1.48108">
        <ele>253.44</ele>
        <time>2018-09-17T14:56:49Z</time>
      </trkpt>
      <trkpt lat="44.68673" lon="1.48119">
        <ele>253.44</ele>
        <time>2018-09-17T14:57:03Z</time>
      </trkpt>
      <trkpt lat="44.68666" lon="1.48129">
        <ele>252.96</ele>
        <time>2018-09-17T14:57:13Z</time>
      </trkpt>
      <trkpt lat="44.68659" lon="1.4814">
        <ele>252</ele>
        <time>2018-09-17T14:57:22Z</time>
      </trkpt>
      <trkpt lat="44.68652" lon="1.48151">
        <ele>251.52</ele>
        <time>2018-09-17T14:57:32Z</time>
      </trkpt>
      <trkpt lat="44.68644" lon="1.48162">
        <ele>251.04</ele>
        <time>2018-09-17T14:57:41Z</time>
      </trkpt>
      <trkpt lat="44.68636" lon="1.48171">
        <ele>250.08</ele>
        <time>2018-09-17T14:57:51Z</time>
      </trkpt>
      <trkpt lat="44.68628" lon="1.48181">
        <ele>249.6</ele>
        <time>2018-09-17T14:57:59Z</time>
      </trkpt>
      <trkpt lat="44.68617" lon="1.48188">
        <ele>249.12</ele>
        <time>2018-09-17T14:58:10Z</time>
      </trkpt>
      <trkpt lat="44.68604" lon="1.48198">
        <ele>248.16</ele>
        <time>2018-09-17T14:58:21Z</time>
      </trkpt>
      <trkpt lat="44.68593" lon="1.48203">
        <ele>247.68</ele>
        <time>2018-09-17T14:58:30Z</time>
      </trkpt>
      <trkpt lat="44.68582" lon="1.48205">
        <ele>247.2</ele>
        <time>2018-09-17T14:58:40Z</time>
      </trkpt>
      <trkpt lat="44.68571" lon="1.48197">
        <ele>245.75</ele>
        <time>2018-09-17T14:59:21Z</time>
      </trkpt>
      <trkpt lat="44.6857" lon="1.48181">
        <ele>245.27</ele>
        <time>2018-09-17T14:59:31Z</time>
      </trkpt>
      <trkpt lat="44.68571" lon="1.48162">
        <ele>245.27</ele>
        <time>2018-09-17T14:59:45Z</time>
      </trkpt>
      <trkpt lat="44.68559" lon="1.4814">
        <ele>246.23</ele>
        <time>2018-09-17T15:01:45Z</time>
      </trkpt>
      <trkpt lat="44.68548" lon="1.48136">
        <ele>246.72</ele>
        <time>2018-09-17T15:01:58Z</time>
      </trkpt>
      <trkpt lat="44.68535" lon="1.48134">
        <ele>246.72</ele>
        <time>2018-09-17T15:02:09Z</time>
      </trkpt>
      <trkpt lat="44.68521" lon="1.48133">
        <ele>246.72</ele>
        <time>2018-09-17T15:02:21Z</time>
      </trkpt>
      <trkpt lat="44.68508" lon="1.48132">
        <ele>246.72</ele>
        <time>2018-09-17T15:02:31Z</time>
      </trkpt>
      <trkpt lat="44.68495" lon="1.48131">
        <ele>245.75</ele>
        <time>2018-09-17T15:02:42Z</time>
      </trkpt>
      <trkpt lat="44.68481" lon="1.48131">
        <ele>245.75</ele>
        <time>2018-09-17T15:02:55Z</time>
      </trkpt>
      <trkpt lat="44.68468" lon="1.48134">
        <ele>245.75</ele>
        <time>2018-09-17T15:03:05Z</time>
      </trkpt>
      <trkpt lat="44.68456" lon="1.48136">
        <ele>245.27</ele>
        <time>2018-09-17T15:03:14Z</time>
      </trkpt>
      <trkpt lat="44.68445" lon="1.4814">
        <ele>244.79</ele>
        <time>2018-09-17T15:03:23Z</time>
      </trkpt>
      <trkpt lat="44.68432" lon="1.48143">
        <ele>244.31</ele>
        <time>2018-09-17T15:03:33Z</time>
      </trkpt>
      <trkpt lat="44.68421" lon="1.48147">
        <ele>243.83</ele>
        <time>2018-09-17T15:03:42Z</time>
      </trkpt>
      <trkpt lat="44.68409" lon="1.48148">
        <ele>243.35</ele>
        <time>2018-09-17T15:03:53Z</time>
      </trkpt>
      <trkpt lat="44.68393" lon="1.48153">
        <ele>242.87</ele>
        <time>2018-09-17T15:04:04Z</time>
      </trkpt>
      <trkpt lat="44.6838" lon="1.48152">
        <ele>242.87</ele>
        <time>2018-09-17T15:04:14Z</time>
      </trkpt>
      <trkpt lat="44.6837" lon="1.48146">
        <ele>242.87</ele>
        <time>2018-09-17T15:04:24Z</time>
      </trkpt>
      <trkpt lat="44.68362" lon="1.48138">
        <ele>242.87</ele>
        <time>2018-09-17T15:04:34Z</time>
      </trkpt>
      <trkpt lat="44.68351" lon="1.48129">
        <ele>242.87</ele>
        <time>2018-09-17T15:04:43Z</time>
      </trkpt>
      <trkpt lat="44.68339" lon="1.48121">
        <ele>242.39</ele>
        <time>2018-09-17T15:04:52Z</time>
      </trkpt>
      <trkpt lat="44.68328" lon="1.48112">
        <ele>242.39</ele>
        <time>2018-09-17T15:05:03Z</time>
      </trkpt>
      <trkpt lat="44.6832" lon="1.48102">
        <ele>242.39</ele>
        <time>2018-09-17T15:05:12Z</time>
      </trkpt>
      <trkpt lat="44.68312" lon="1.48091">
        <ele>243.83</ele>
        <time>2018-09-17T15:05:22Z</time>
      </trkpt>
      <trkpt lat="44.68301" lon="1.48078">
        <ele>243.83</ele>
        <time>2018-09-17T15:05:32Z</time>
      </trkpt>
      <trkpt lat="44.6829" lon="1.48065">
        <ele>244.31</ele>
        <time>2018-09-17T15:05:42Z</time>
      </trkpt>
      <trkpt lat="44.68282" lon="1.48053">
        <ele>244.79</ele>
        <time>2018-09-17T15:05:52Z</time>
      </trkpt>
      <trkpt lat="44.68274" lon="1.48042">
        <ele>245.27</ele>
        <time>2018-09-17T15:06:02Z</time>
      </trkpt>
      <trkpt lat="44.68264" lon="1.4803">
        <ele>245.75</ele>
        <time>2018-09-17T15:06:13Z</time>
      </trkpt>
      <trkpt lat="44.68255" lon="1.48018">
        <ele>245.27</ele>
        <time>2018-09-17T15:06:22Z</time>
      </trkpt>
      <trkpt lat="44.68244" lon="1.48007">
        <ele>245.27</ele>
        <time>2018-09-17T15:06:32Z</time>
      </trkpt>
      <trkpt lat="44.68233" lon="1.47999">
        <ele>244.31</ele>
        <time>2018-09-17T15:06:41Z</time>
      </trkpt>
      <trkpt lat="44.68223" lon="1.47992">
        <ele>243.83</ele>
        <time>2018-09-17T15:06:49Z</time>
      </trkpt>
      <trkpt lat="44.68212" lon="1.47984">
        <ele>242.87</ele>
        <time>2018-09-17T15:06:58Z</time>
      </trkpt>
      <trkpt lat="44.682" lon="1.47975">
        <ele>242.39</ele>
        <time>2018-09-17T15:07:08Z</time>
      </trkpt>
      <trkpt lat="44.68189" lon="1.47963">
        <ele>242.39</ele>
        <time>2018-09-17T15:07:18Z</time>
      </trkpt>
      <trkpt lat="44.68178" lon="1.47951">
        <ele>242.39</ele>
        <time>2018-09-17T15:07:28Z</time>
      </trkpt>
      <trkpt lat="44.68166" lon="1.47943">
        <ele>242.39</ele>
        <time>2018-09-17T15:07:38Z</time>
      </trkpt>
      <trkpt lat="44.68155" lon="1.47934">
        <ele>242.39</ele>
        <time>2018-09-17T15:07:48Z</time>
      </trkpt>
      <trkpt lat="44.68143" lon="1.47926">
        <ele>242.39</ele>
        <time>2018-09-17T15:07:58Z</time>
      </trkpt>
      <trkpt lat="44.68132" lon="1.47918">
        <ele>242.39</ele>
        <time>2018-09-17T15:08:07Z</time>
      </trkpt>
      <trkpt lat="44.68123" lon="1.47909">
        <ele>242.39</ele>
        <time>2018-09-17T15:08:15Z</time>
      </trkpt>
      <trkpt lat="44.68114" lon="1.47903">
        <ele>241.91</ele>
        <time>2018-09-17T15:08:23Z</time>
      </trkpt>
      <trkpt lat="44.68106" lon="1.47895">
        <ele>241.91</ele>
        <time>2018-09-17T15:08:31Z</time>
      </trkpt>
      <trkpt lat="44.68097" lon="1.47887">
        <ele>241.91</ele>
        <time>2018-09-17T15:08:39Z</time>
      </trkpt>
      <trkpt lat="44.68086" lon="1.47879">
        <ele>241.91</ele>
        <time>2018-09-17T15:08:47Z</time>
      </trkpt>
      <trkpt lat="44.68076" lon="1.47871">
        <ele>241.91</ele>
        <time>2018-09-17T15:08:55Z</time>
      </trkpt>
      <trkpt lat="44.68066" lon="1.47865">
        <ele>241.91</ele>
        <time>2018-09-17T15:09:03Z</time>
      </trkpt>
      <trkpt lat="44.68056" lon="1.47858">
        <ele>241.91</ele>
        <time>2018-09-17T15:09:11Z</time>
      </trkpt>
      <trkpt lat="44.68046" lon="1.47851">
        <ele>241.91</ele>
        <time>2018-09-17T15:09:19Z</time>
      </trkpt>
      <trkpt lat="44.68037" lon="1.47843">
        <ele>241.91</ele>
        <time>2018-09-17T15:09:27Z</time>
      </trkpt>
      <trkpt lat="44.68028" lon="1.47834">
        <ele>241.91</ele>
        <time>2018-09-17T15:09:35Z</time>
      </trkpt>
      <trkpt lat="44.68018" lon="1.47827">
        <ele>241.91</ele>
        <time>2018-09-17T15:09:43Z</time>
      </trkpt>
      <trkpt lat="44.68009" lon="1.47821">
        <ele>241.91</ele>
        <time>2018-09-17T15:09:51Z</time>
      </trkpt>
      <trkpt lat="44.68" lon="1.47812">
        <ele>241.91</ele>
        <time>2018-09-17T15:09:59Z</time>
      </trkpt>
      <trkpt lat="44.67991" lon="1.47805">
        <ele>241.43</ele>
        <time>2018-09-17T15:10:07Z</time>
      </trkpt>
      <trkpt lat="44.67983" lon="1.47797">
        <ele>241.43</ele>
        <time>2018-09-17T15:10:14Z</time>
      </trkpt>
      <trkpt lat="44.67974" lon="1.47791">
        <ele>241.43</ele>
        <time>2018-09-17T15:10:21Z</time>
      </trkpt>
      <trkpt lat="44.67967" lon="1.47783">
        <ele>241.43</ele>
        <time>2018-09-17T15:10:28Z</time>
      </trkpt>
      <trkpt lat="44.67958" lon="1.47774">
        <ele>240.95</ele>
        <time>2018-09-17T15:10:36Z</time>
      </trkpt>
      <trkpt lat="44.67949" lon="1.47767">
        <ele>240.95</ele>
        <time>2018-09-17T15:10:44Z</time>
      </trkpt>
      <trkpt lat="44.67941" lon="1.4776">
        <ele>240.47</ele>
        <time>2018-09-17T15:10:51Z</time>
      </trkpt>
      <trkpt lat="44.67931" lon="1.47751">
        <ele>240.47</ele>
        <time>2018-09-17T15:10:59Z</time>
      </trkpt>
      <trkpt lat="44.67922" lon="1.47744">
        <ele>240.47</ele>
        <time>2018-09-17T15:11:07Z</time>
      </trkpt>
      <trkpt lat="44.67911" lon="1.47737">
        <ele>240.47</ele>
        <time>2018-09-17T15:11:16Z</time>
      </trkpt>
      <trkpt lat="44.67902" lon="1.47731">
        <ele>240.47</ele>
        <time>2018-09-17T15:11:25Z</time>
      </trkpt>
      <trkpt lat="44.67892" lon="1.47725">
        <ele>239.99</ele>
        <time>2018-09-17T15:11:35Z</time>
      </trkpt>
      <trkpt lat="44.67881" lon="1.47715">
        <ele>239.99</ele>
        <time>2018-09-17T15:11:44Z</time>
      </trkpt>
      <trkpt lat="44.67871" lon="1.47707">
        <ele>239.02</ele>
        <time>2018-09-17T15:11:54Z</time>
      </trkpt>
      <trkpt lat="44.67861" lon="1.47698">
        <ele>238.54</ele>
        <time>2018-09-17T15:12:03Z</time>
      </trkpt>
      <trkpt lat="44.67851" lon="1.47688">
        <ele>238.54</ele>
        <time>2018-09-17T15:12:12Z</time>
      </trkpt>
      <trkpt lat="44.67842" lon="1.4768">
        <ele>237.58</ele>
        <time>2018-09-17T15:12:20Z</time>
      </trkpt>
      <trkpt lat="44.67832" lon="1.4767">
        <ele>237.58</ele>
        <time>2018-09-17T15:12:28Z</time>
      </trkpt>
      <trkpt lat="44.67822" lon="1.47661">
        <ele>237.58</ele>
        <time>2018-09-17T15:12:36Z</time>
      </trkpt>
      <trkpt lat="44.67813" lon="1.47652">
        <ele>237.58</ele>
        <time>2018-09-17T15:12:44Z</time>
      </trkpt>
      <trkpt lat="44.67804" lon="1.47644">
        <ele>237.58</ele>
        <time>2018-09-17T15:12:52Z</time>
      </trkpt>
      <trkpt lat="44.67797" lon="1.47634">
        <ele>237.58</ele>
        <time>2018-09-17T15:13:00Z</time>
      </trkpt>
      <trkpt lat="44.67788" lon="1.47622">
        <ele>237.58</ele>
        <time>2018-09-17T15:13:09Z</time>
      </trkpt>
      <trkpt lat="44.67781" lon="1.4761">
        <ele>237.58</ele>
        <time>2018-09-17T15:13:17Z</time>
      </trkpt>
      <trkpt lat="44.67773" lon="1.47598">
        <ele>239.02</ele>
        <time>2018-09-17T15:13:26Z</time>
      </trkpt>
      <trkpt lat="44.67766" lon="1.47587">
        <ele>239.02</ele>
        <time>2018-09-17T15:13:35Z</time>
      </trkpt>
      <trkpt lat="44.67758" lon="1.47577">
        <ele>239.02</ele>
        <time>2018-09-17T15:13:43Z</time>
      </trkpt>
      <trkpt lat="44.6775" lon="1.4757">
        <ele>239.02</ele>
        <time>2018-09-17T15:13:51Z</time>
      </trkpt>
      <trkpt lat="44.67739" lon="1.47564">
        <ele>239.02</ele>
        <time>2018-09-17T15:13:59Z</time>
      </trkpt>
      <trkpt lat="44.6773" lon="1.47554">
        <ele>239.02</ele>
        <time>2018-09-17T15:14:08Z</time>
      </trkpt>
      <trkpt lat="44.67722" lon="1.47544">
        <ele>239.02</ele>
        <time>2018-09-17T15:14:17Z</time>
      </trkpt>
      <trkpt lat="44.67715" lon="1.47534">
        <ele>239.02</ele>
        <time>2018-09-17T15:14:25Z</time>
      </trkpt>
      <trkpt lat="44.67709" lon="1.47522">
        <ele>239.02</ele>
        <time>2018-09-17T15:14:33Z</time>
      </trkpt>
      <trkpt lat="44.67702" lon="1.47511">
        <ele>239.02</ele>
        <time>2018-09-17T15:14:41Z</time>
      </trkpt>
      <trkpt lat="44.67693" lon="1.47499">
        <ele>239.51</ele>
        <time>2018-09-17T15:14:50Z</time>
      </trkpt>
      <trkpt lat="44.67685" lon="1.47489">
        <ele>239.51</ele>
        <time>2018-09-17T15:14:59Z</time>
      </trkpt>
      <trkpt lat="44.67677" lon="1.47477">
        <ele>239.99</ele>
        <time>2018-09-17T15:15:08Z</time>
      </trkpt>
      <trkpt lat="44.67669" lon="1.47466">
        <ele>239.99</ele>
        <time>2018-09-17T15:15:17Z</time>
      </trkpt>
      <trkpt lat="44.6766" lon="1.47456">
        <ele>239.99</ele>
        <time>2018-09-17T15:15:25Z</time>
      </trkpt>
      <trkpt lat="44.67651" lon="1.47445">
        <ele>239.99</ele>
        <time>2018-09-17T15:15:34Z</time>
      </trkpt>
      <trkpt lat="44.67643" lon="1.47435">
        <ele>239.99</ele>
        <time>2018-09-17T15:15:42Z</time>
      </trkpt>
      <trkpt lat="44.67635" lon="1.47425">
        <ele>239.99</ele>
        <time>2018-09-17T15:15:51Z</time>
      </trkpt>
      <trkpt lat="44.67627" lon="1.47416">
        <ele>240.47</ele>
        <time>2018-09-17T15:15:59Z</time>
      </trkpt>
      <trkpt lat="44.6762" lon="1.47407">
        <ele>240.47</ele>
        <time>2018-09-17T15:16:08Z</time>
      </trkpt>
      <trkpt lat="44.67614" lon="1.47395">
        <ele>240.47</ele>
        <time>2018-09-17T15:16:23Z</time>
      </trkpt>
      <trkpt lat="44.67614" lon="1.47391">
        <ele>239.99</ele>
        <time>2018-09-17T15:18:57Z</time>
      </trkpt>
      <trkpt lat="44.67606" lon="1.47378">
        <ele>242.39</ele>
        <time>2018-09-17T15:19:08Z</time>
      </trkpt>
      <trkpt lat="44.67601" lon="1.47365">
        <ele>243.83</ele>
        <time>2018-09-17T15:19:18Z</time>
      </trkpt>
      <trkpt lat="44.67596" lon="1.47351">
        <ele>246.23</ele>
        <time>2018-09-17T15:19:27Z</time>
      </trkpt>
      <trkpt lat="44.67591" lon="1.47338">
        <ele>246.72</ele>
        <time>2018-09-17T15:19:36Z</time>
      </trkpt>
      <trkpt lat="44.67587" lon="1.47326">
        <ele>247.2</ele>
        <time>2018-09-17T15:19:44Z</time>
      </trkpt>
      <trkpt lat="44.67582" lon="1.47313">
        <ele>247.2</ele>
        <time>2018-09-17T15:19:52Z</time>
      </trkpt>
      <trkpt lat="44.67579" lon="1.47298">
        <ele>247.2</ele>
        <time>2018-09-17T15:20:00Z</time>
      </trkpt>
      <trkpt lat="44.67576" lon="1.47283">
        <ele>247.2</ele>
        <time>2018-09-17T15:20:08Z</time>
      </trkpt>
      <trkpt lat="44.67575" lon="1.47269">
        <ele>247.2</ele>
        <time>2018-09-17T15:20:16Z</time>
      </trkpt>
      <trkpt lat="44.67572" lon="1.47254">
        <ele>247.68</ele>
        <time>2018-09-17T15:20:24Z</time>
      </trkpt>
      <trkpt lat="44.67571" lon="1.4724">
        <ele>248.16</ele>
        <time>2018-09-17T15:20:32Z</time>
      </trkpt>
      <trkpt lat="44.67568" lon="1.47224">
        <ele>248.64</ele>
        <time>2018-09-17T15:20:41Z</time>
      </trkpt>
      <trkpt lat="44.67567" lon="1.4721">
        <ele>249.12</ele>
        <time>2018-09-17T15:20:50Z</time>
      </trkpt>
      <trkpt lat="44.67566" lon="1.47195">
        <ele>249.6</ele>
        <time>2018-09-17T15:20:58Z</time>
      </trkpt>
      <trkpt lat="44.67565" lon="1.4718">
        <ele>250.08</ele>
        <time>2018-09-17T15:21:06Z</time>
      </trkpt>
      <trkpt lat="44.67565" lon="1.47165">
        <ele>250.56</ele>
        <time>2018-09-17T15:21:14Z</time>
      </trkpt>
      <trkpt lat="44.67566" lon="1.47151">
        <ele>251.04</ele>
        <time>2018-09-17T15:21:22Z</time>
      </trkpt>
      <trkpt lat="44.67567" lon="1.47136">
        <ele>251.04</ele>
        <time>2018-09-17T15:21:30Z</time>
      </trkpt>
      <trkpt lat="44.67569" lon="1.47122">
        <ele>251.52</ele>
        <time>2018-09-17T15:21:59Z</time>
      </trkpt>
      <trkpt lat="44.67571" lon="1.47108">
        <ele>251.52</ele>
        <time>2018-09-17T15:22:07Z</time>
      </trkpt>
      <trkpt lat="44.67573" lon="1.47095">
        <ele>252</ele>
        <time>2018-09-17T15:22:14Z</time>
      </trkpt>
      <trkpt lat="44.67574" lon="1.47081">
        <ele>252</ele>
        <time>2018-09-17T15:22:22Z</time>
      </trkpt>
      <trkpt lat="44.67576" lon="1.47067">
        <ele>252</ele>
        <time>2018-09-17T15:22:29Z</time>
      </trkpt>
      <trkpt lat="44.67578" lon="1.47051">
        <ele>252</ele>
        <time>2018-09-17T15:22:37Z</time>
      </trkpt>
      <trkpt lat="44.6758" lon="1.47037">
        <ele>252</ele>
        <time>2018-09-17T15:22:44Z</time>
      </trkpt>
      <trkpt lat="44.67583" lon="1.47023">
        <ele>252</ele>
        <time>2018-09-17T15:22:52Z</time>
      </trkpt>
      <trkpt lat="44.67586" lon="1.47009">
        <ele>252</ele>
        <time>2018-09-17T15:23:00Z</time>
      </trkpt>
      <trkpt lat="44.67588" lon="1.46996">
        <ele>252</ele>
        <time>2018-09-17T15:23:08Z</time>
      </trkpt>
      <trkpt lat="44.6759" lon="1.46981">
        <ele>252</ele>
        <time>2018-09-17T15:23:15Z</time>
      </trkpt>
      <trkpt lat="44.67593" lon="1.46967">
        <ele>251.52</ele>
        <time>2018-09-17T15:23:23Z</time>
      </trkpt>
      <trkpt lat="44.67597" lon="1.46955">
        <ele>251.52</ele>
        <time>2018-09-17T15:23:30Z</time>
      </trkpt>
      <trkpt lat="44.67599" lon="1.46942">
        <ele>251.52</ele>
        <time>2018-09-17T15:23:37Z</time>
      </trkpt>
      <trkpt lat="44.67602" lon="1.46928">
        <ele>251.52</ele>
        <time>2018-09-17T15:23:44Z</time>
      </trkpt>
      <trkpt lat="44.67606" lon="1.46914">
        <ele>251.52</ele>
        <time>2018-09-17T15:23:52Z</time>
      </trkpt>
      <trkpt lat="44.6761" lon="1.46899">
        <ele>251.52</ele>
        <time>2018-09-17T15:23:59Z</time>
      </trkpt>
      <trkpt lat="44.67614" lon="1.46886">
        <ele>251.52</ele>
        <time>2018-09-17T15:24:06Z</time>
      </trkpt>
      <trkpt lat="44.67618" lon="1.46874">
        <ele>251.52</ele>
        <time>2018-09-17T15:24:13Z</time>
      </trkpt>
      <trkpt lat="44.67622" lon="1.46861">
        <ele>250.56</ele>
        <time>2018-09-17T15:24:20Z</time>
      </trkpt>
      <trkpt lat="44.67627" lon="1.46848">
        <ele>250.56</ele>
        <time>2018-09-17T15:24:27Z</time>
      </trkpt>
      <trkpt lat="44.67629" lon="1.46835">
        <ele>250.56</ele>
        <time>2018-09-17T15:24:34Z</time>
      </trkpt>
      <trkpt lat="44.67633" lon="1.46823">
        <ele>250.56</ele>
        <time>2018-09-17T15:24:41Z</time>
      </trkpt>
      <trkpt lat="44.67637" lon="1.46811">
        <ele>250.56</ele>
        <time>2018-09-17T15:24:48Z</time>
      </trkpt>
      <trkpt lat="44.6764" lon="1.46798">
        <ele>250.56</ele>
        <time>2018-09-17T15:24:55Z</time>
      </trkpt>
      <trkpt lat="44.67643" lon="1.46785">
        <ele>250.56</ele>
        <time>2018-09-17T15:25:02Z</time>
      </trkpt>
      <trkpt lat="44.67646" lon="1.46771">
        <ele>250.56</ele>
        <time>2018-09-17T15:25:09Z</time>
      </trkpt>
      <trkpt lat="44.67649" lon="1.46759">
        <ele>250.56</ele>
        <time>2018-09-17T15:25:16Z</time>
      </trkpt>
      <trkpt lat="44.67652" lon="1.46746">
        <ele>252</ele>
        <time>2018-09-17T15:25:23Z</time>
      </trkpt>
      <trkpt lat="44.67655" lon="1.46733">
        <ele>252.48</ele>
        <time>2018-09-17T15:25:31Z</time>
      </trkpt>
      <trkpt lat="44.67659" lon="1.46718">
        <ele>252.96</ele>
        <time>2018-09-17T15:25:39Z</time>
      </trkpt>
      <trkpt lat="44.67663" lon="1.46705">
        <ele>253.44</ele>
        <time>2018-09-17T15:25:47Z</time>
      </trkpt>
      <trkpt lat="44.67666" lon="1.46692">
        <ele>253.44</ele>
        <time>2018-09-17T15:25:54Z</time>
      </trkpt>
      <trkpt lat="44.67669" lon="1.46679">
        <ele>253.93</ele>
        <time>2018-09-17T15:26:01Z</time>
      </trkpt>
      <trkpt lat="44.67673" lon="1.46666">
        <ele>253.93</ele>
        <time>2018-09-17T15:26:08Z</time>
      </trkpt>
      <trkpt lat="44.67676" lon="1.46653">
        <ele>254.41</ele>
        <time>2018-09-17T15:26:16Z</time>
      </trkpt>
      <trkpt lat="44.6768" lon="1.46641">
        <ele>254.41</ele>
        <time>2018-09-17T15:26:23Z</time>
      </trkpt>
      <trkpt lat="44.67684" lon="1.46628">
        <ele>254.41</ele>
        <time>2018-09-17T15:26:30Z</time>
      </trkpt>
      <trkpt lat="44.67689" lon="1.46616">
        <ele>254.89</ele>
        <time>2018-09-17T15:26:37Z</time>
      </trkpt>
      <trkpt lat="44.67693" lon="1.46605">
        <ele>254.89</ele>
        <time>2018-09-17T15:26:44Z</time>
      </trkpt>
      <trkpt lat="44.67697" lon="1.46592">
        <ele>255.37</ele>
        <time>2018-09-17T15:26:51Z</time>
      </trkpt>
      <trkpt lat="44.67701" lon="1.4658">
        <ele>255.37</ele>
        <time>2018-09-17T15:26:58Z</time>
      </trkpt>
      <trkpt lat="44.67704" lon="1.46567">
        <ele>255.37</ele>
        <time>2018-09-17T15:27:05Z</time>
      </trkpt>
      <trkpt lat="44.67708" lon="1.46554">
        <ele>255.37</ele>
        <time>2018-09-17T15:27:12Z</time>
      </trkpt>
      <trkpt lat="44.67711" lon="1.46542">
        <ele>255.37</ele>
        <time>2018-09-17T15:27:19Z</time>
      </trkpt>
      <trkpt lat="44.67716" lon="1.4653">
        <ele>255.37</ele>
        <time>2018-09-17T15:27:26Z</time>
      </trkpt>
      <trkpt lat="44.6772" lon="1.46516">
        <ele>255.37</ele>
        <time>2018-09-17T15:27:34Z</time>
      </trkpt>
      <trkpt lat="44.67725" lon="1.46504">
        <ele>255.37</ele>
        <time>2018-09-17T15:27:41Z</time>
      </trkpt>
      <trkpt lat="44.67729" lon="1.46493">
        <ele>255.37</ele>
        <time>2018-09-17T15:27:48Z</time>
      </trkpt>
      <trkpt lat="44.67734" lon="1.46481">
        <ele>253.93</ele>
        <time>2018-09-17T15:27:55Z</time>
      </trkpt>
      <trkpt lat="44.67738" lon="1.4647">
        <ele>253.93</ele>
        <time>2018-09-17T15:28:02Z</time>
      </trkpt>
      <trkpt lat="44.6774" lon="1.46456">
        <ele>254.41</ele>
        <time>2018-09-17T15:28:09Z</time>
      </trkpt>
      <trkpt lat="44.67743" lon="1.46443">
        <ele>253.93</ele>
        <time>2018-09-17T15:28:16Z</time>
      </trkpt>
      <trkpt lat="44.67745" lon="1.4643">
        <ele>252.96</ele>
        <time>2018-09-17T15:28:24Z</time>
      </trkpt>
      <trkpt lat="44.67747" lon="1.46416">
        <ele>252.48</ele>
        <time>2018-09-17T15:28:31Z</time>
      </trkpt>
      <trkpt lat="44.67749" lon="1.46403">
        <ele>252</ele>
        <time>2018-09-17T15:28:38Z</time>
      </trkpt>
      <trkpt lat="44.67751" lon="1.4639">
        <ele>251.52</ele>
        <time>2018-09-17T15:28:45Z</time>
      </trkpt>
      <trkpt lat="44.67752" lon="1.46378">
        <ele>251.52</ele>
        <time>2018-09-17T15:28:51Z</time>
      </trkpt>
      <trkpt lat="44.67754" lon="1.46365">
        <ele>250.08</ele>
        <time>2018-09-17T15:28:58Z</time>
      </trkpt>
      <trkpt lat="44.67756" lon="1.46353">
        <ele>249.6</ele>
        <time>2018-09-17T15:29:05Z</time>
      </trkpt>
      <trkpt lat="44.67758" lon="1.46341">
        <ele>249.12</ele>
        <time>2018-09-17T15:29:12Z</time>
      </trkpt>
      <trkpt lat="44.6776" lon="1.46328">
        <ele>248.16</ele>
        <time>2018-09-17T15:29:20Z</time>
      </trkpt>
      <trkpt lat="44.67767" lon="1.46322">
        <ele>247.68</ele>
        <time>2018-09-17T15:29:28Z</time>
      </trkpt>
      <trkpt lat="44.67767" lon="1.46311">
        <ele>247.68</ele>
        <time>2018-09-17T15:29:37Z</time>
      </trkpt>
      <trkpt lat="44.67767" lon="1.46298">
        <ele>245.75</ele>
        <time>2018-09-17T15:29:47Z</time>
      </trkpt>
      <trkpt lat="44.6777" lon="1.46284">
        <ele>244.31</ele>
        <time>2018-09-17T15:29:56Z</time>
      </trkpt>
      <trkpt lat="44.67772" lon="1.4627">
        <ele>242.87</ele>
        <time>2018-09-17T15:30:05Z</time>
      </trkpt>
      <trkpt lat="44.67774" lon="1.46256">
        <ele>241.91</ele>
        <time>2018-09-17T15:30:15Z</time>
      </trkpt>
      <trkpt lat="44.67776" lon="1.46241">
        <ele>239.99</ele>
        <time>2018-09-17T15:30:24Z</time>
      </trkpt>
      <trkpt lat="44.67783" lon="1.46232">
        <ele>239.02</ele>
        <time>2018-09-17T15:30:33Z</time>
      </trkpt>
      <trkpt lat="44.6779" lon="1.4622">
        <ele>238.54</ele>
        <time>2018-09-17T15:30:42Z</time>
      </trkpt>
      <trkpt lat="44.67796" lon="1.46206">
        <ele>238.54</ele>
        <time>2018-09-17T15:30:51Z</time>
      </trkpt>
      <trkpt lat="44.67802" lon="1.46194">
        <ele>238.54</ele>
        <time>2018-09-17T15:31:00Z</time>
      </trkpt>
    </trkseg>
  </trk>
</gpx>